<?xml version='1.0' encoding='UTF-8'?><gpx version="1.1" creator="JPX - https://github.com/jenetics/jpx" xmlns="http://www.topografix.com/GPX/1/1"><trk><trkseg><trkpt lat="44.54785463979427" lon="10.901764759060397"><ele>96.33333333333334</ele><time>2026-04-18T07:40:20.175Z</time></trkpt><trkpt lat="44.54787840769558" lon="10.901606357568234"><ele>96.66666666666667</ele><time>2026-04-18T07:40:21.012Z</time></trkpt><trkpt lat="44.54789745559678" lon="10.901894661881952"><ele>97.0</ele><time>2026-04-18T07:40:32.944Z</time></trkpt><trkpt lat="44.547892375112255" lon="10.901575749581378"><ele>97.16666666666667</ele><time>2026-04-18T07:41:18.478Z</time></trkpt><trkpt lat="44.54783521710127" lon="10.901528819177473"><ele>97.33333333333334</ele><time>2026-04-18T07:42:17Z</time></trkpt><trkpt lat="44.54775770502168" lon="10.901526792224125"><ele>97.5</ele><time>2026-04-18T07:42:20Z</time></trkpt><trkpt lat="44.5476690775994" lon="10.901506644668935"><ele>97.66666666666666</ele><time>2026-04-18T07:42:23Z</time></trkpt><trkpt lat="44.54759987474727" lon="10.901482114834874"><ele>97.83333333333333</ele><time>2026-04-18T07:42:25Z</time></trkpt><trkpt lat="44.547526340335516" lon="10.90146635492537"><ele>98.0</ele><time>2026-04-18T07:42:27Z</time></trkpt><trkpt lat="44.54745157853807" lon="10.901459223886565"><ele>97.99999999999999</ele><time>2026-04-18T07:42:29Z</time></trkpt><trkpt lat="44.547378606457734" lon="10.901424583265884"><ele>98.0</ele><time>2026-04-18T07:42:31Z</time></trkpt><trkpt lat="44.54731796405688" lon="10.901387660040633"><ele>98.0</ele><time>2026-04-18T07:42:33Z</time></trkpt><trkpt lat="44.5472929290476" lon="10.901267105444278"><ele>98.0</ele><time>2026-04-18T07:42:36Z</time></trkpt><trkpt lat="44.54730364591657" lon="10.901171442138665"><ele>97.99999999999999</ele><time>2026-04-18T07:42:38Z</time></trkpt><trkpt lat="44.547366152351515" lon="10.901117375989154"><ele>98.0</ele><time>2026-04-18T07:42:41Z</time></trkpt><trkpt lat="44.54744392235814" lon="10.901148895666825"><ele>97.99999999999999</ele><time>2026-04-18T07:42:44Z</time></trkpt><trkpt lat="44.54751521412617" lon="10.901155542542941"><ele>98.0</ele><time>2026-04-18T07:42:47Z</time></trkpt><trkpt lat="44.54760578266096" lon="10.901178588485886"><ele>98.0</ele><time>2026-04-18T07:42:50Z</time></trkpt><trkpt lat="44.547702460056044" lon="10.901190792256218"><ele>98.0</ele><time>2026-04-18T07:42:53Z</time></trkpt><trkpt lat="44.54779134875436" lon="10.901213817474838"><ele>97.99999999999999</ele><time>2026-04-18T07:42:55Z</time></trkpt><trkpt lat="44.54788411047353" lon="10.901230807372059"><ele>98.0</ele><time>2026-04-18T07:42:57Z</time></trkpt><trkpt lat="44.547982336464614" lon="10.901255723383395"><ele>97.80000000000001</ele><time>2026-04-18T07:42:59Z</time></trkpt><trkpt lat="44.548083789975735" lon="10.901277339562137"><ele>97.6</ele><time>2026-04-18T07:43:01Z</time></trkpt><trkpt lat="44.54819024132535" lon="10.901296499362463"><ele>97.4</ele><time>2026-04-18T07:43:03Z</time></trkpt><trkpt lat="44.5482968613048" lon="10.901324354955976"><ele>97.19999999999999</ele><time>2026-04-18T07:43:05Z</time></trkpt><trkpt lat="44.54840600941319" lon="10.90134157285768"><ele>97.0</ele><time>2026-04-18T07:43:07Z</time></trkpt><trkpt lat="44.54850798430459" lon="10.901366034511597"><ele>97.00000000000001</ele><time>2026-04-18T07:43:09Z</time></trkpt><trkpt lat="44.5486155224461" lon="10.901383375527177"><ele>97.0</ele><time>2026-04-18T07:43:11Z</time></trkpt><trkpt lat="44.548699526163915" lon="10.901406730720215"><ele>97.0</ele><time>2026-04-18T07:43:13Z</time></trkpt><trkpt lat="44.54876057762638" lon="10.901456686306583"><ele>97.0</ele><time>2026-04-18T07:43:15Z</time></trkpt><trkpt lat="44.54883312891285" lon="10.901475848155066"><ele>97.00000000000001</ele><time>2026-04-18T07:43:17Z</time></trkpt><trkpt lat="44.548920920066195" lon="10.901473722253654"><ele>97.0</ele><time>2026-04-18T07:43:19Z</time></trkpt><trkpt lat="44.54900895546678" lon="10.901497279832725"><ele>96.66666666666667</ele><time>2026-04-18T07:43:21Z</time></trkpt><trkpt lat="44.54909344105545" lon="10.901517272886581"><ele>96.33333333333334</ele><time>2026-04-18T07:43:23Z</time></trkpt><trkpt lat="44.549169283708416" lon="10.901579483035322"><ele>96.0</ele><time>2026-04-18T07:43:26Z</time></trkpt><trkpt lat="44.54921639856324" lon="10.901663281002866"><ele>95.66666666666667</ele><time>2026-04-18T07:43:28Z</time></trkpt><trkpt lat="44.54922945900349" lon="10.901798425045643"><ele>95.33333333333334</ele><time>2026-04-18T07:43:30Z</time></trkpt><trkpt lat="44.54919256001378" lon="10.901928598777914"><ele>95.0</ele><time>2026-04-18T07:43:32Z</time></trkpt><trkpt lat="44.549141750548145" lon="10.902059580446798"><ele>95.0</ele><time>2026-04-18T07:43:34Z</time></trkpt><trkpt lat="44.54909736827369" lon="10.902197738531143"><ele>95.0</ele><time>2026-04-18T07:43:36Z</time></trkpt><trkpt lat="44.549048193684534" lon="10.902343701672212"><ele>95.0</ele><time>2026-04-18T07:43:38Z</time></trkpt><trkpt lat="44.548981161581445" lon="10.902486062044504"><ele>95.0</ele><time>2026-04-18T07:43:40Z</time></trkpt><trkpt lat="44.548926937106486" lon="10.902639128336507"><ele>95.5</ele><time>2026-04-18T07:43:42Z</time></trkpt><trkpt lat="44.54887692988086" lon="10.902791669124714"><ele>96.0</ele><time>2026-04-18T07:43:44Z</time></trkpt><trkpt lat="44.54882503094037" lon="10.90294210690351"><ele>96.5</ele><time>2026-04-18T07:43:46Z</time></trkpt><trkpt lat="44.54877504290967" lon="10.903082824079686"><ele>97.0</ele><time>2026-04-18T07:43:48Z</time></trkpt><trkpt lat="44.548723335311195" lon="10.903220651256932"><ele>96.39999999999999</ele><time>2026-04-18T07:43:50Z</time></trkpt><trkpt lat="44.54868183826412" lon="10.903348590000213"><ele>95.8</ele><time>2026-04-18T07:43:52Z</time></trkpt><trkpt lat="44.54864115010991" lon="10.903491719007421"><ele>95.2</ele><time>2026-04-18T07:43:54Z</time></trkpt><trkpt lat="44.54860401881736" lon="10.903634119087656"><ele>94.6</ele><time>2026-04-18T07:43:56Z</time></trkpt><trkpt lat="44.5485660062516" lon="10.90377016377958"><ele>94.0</ele><time>2026-04-18T07:43:58Z</time></trkpt><trkpt lat="44.54852160120909" lon="10.903893134002635"><ele>93.80000000000001</ele><time>2026-04-18T07:44:00Z</time></trkpt><trkpt lat="44.548486125033264" lon="10.904013019569588"><ele>93.60000000000001</ele><time>2026-04-18T07:44:02Z</time></trkpt><trkpt lat="44.54842822773102" lon="10.904106187100886"><ele>93.4</ele><time>2026-04-18T07:44:04Z</time></trkpt><trkpt lat="44.548383435564375" lon="10.90420801746511"><ele>93.2</ele><time>2026-04-18T07:44:06Z</time></trkpt><trkpt lat="44.548341638735" lon="10.90434271629288"><ele>93.0</ele><time>2026-04-18T07:44:08Z</time></trkpt><trkpt lat="44.54830359587562" lon="10.904469680124334"><ele>93.0</ele><time>2026-04-18T07:44:10Z</time></trkpt><trkpt lat="44.54825502934351" lon="10.904595607351325"><ele>93.0</ele><time>2026-04-18T07:44:12Z</time></trkpt><trkpt lat="44.54821552543126" lon="10.90471300360732"><ele>93.0</ele><time>2026-04-18T07:44:14Z</time></trkpt><trkpt lat="44.54817036749962" lon="10.904842128546205"><ele>93.0</ele><time>2026-04-18T07:44:16Z</time></trkpt><trkpt lat="44.54812664315786" lon="10.90496770832326"><ele>93.0</ele><time>2026-04-18T07:44:18Z</time></trkpt><trkpt lat="44.548084078746264" lon="10.905098127951272"><ele>92.60000000000001</ele><time>2026-04-18T07:44:20Z</time></trkpt><trkpt lat="44.54804647196258" lon="10.905221983131394"><ele>92.2</ele><time>2026-04-18T07:44:22Z</time></trkpt><trkpt lat="44.54800938679758" lon="10.905345912439405"><ele>91.8</ele><time>2026-04-18T07:44:24Z</time></trkpt><trkpt lat="44.54796336704649" lon="10.905471755635455"><ele>91.4</ele><time>2026-04-18T07:44:26Z</time></trkpt><trkpt lat="44.54792151191006" lon="10.905581442138267"><ele>91.0</ele><time>2026-04-18T07:44:28Z</time></trkpt><trkpt lat="44.54787991249345" lon="10.905690488152548"><ele>91.16666666666666</ele><time>2026-04-18T07:44:31Z</time></trkpt><trkpt lat="44.547839369486546" lon="10.905817982044715"><ele>91.33333333333333</ele><time>2026-04-18T07:44:33Z</time></trkpt><trkpt lat="44.547806296888496" lon="10.905921984073082"><ele>91.5</ele><time>2026-04-18T07:44:35Z</time></trkpt><trkpt lat="44.547812796917796" lon="10.906014011724553"><ele>91.66666666666667</ele><time>2026-04-18T07:44:37Z</time></trkpt><trkpt lat="44.54775926883457" lon="10.906136548631398"><ele>91.83333333333334</ele><time>2026-04-18T07:44:39Z</time></trkpt><trkpt lat="44.547718995317524" lon="10.906259958498154"><ele>92.0</ele><time>2026-04-18T07:44:41Z</time></trkpt><trkpt lat="44.54767283832394" lon="10.906377848074728"><ele>92.19999999999999</ele><time>2026-04-18T07:44:43Z</time></trkpt><trkpt lat="44.54763313336952" lon="10.90649897950242"><ele>92.4</ele><time>2026-04-18T07:44:45Z</time></trkpt><trkpt lat="44.547596149218265" lon="10.906621438863366"><ele>92.6</ele><time>2026-04-18T07:44:47Z</time></trkpt><trkpt lat="44.54755622549002" lon="10.906741500843186"><ele>92.80000000000001</ele><time>2026-04-18T07:44:49Z</time></trkpt><trkpt lat="44.54751802987938" lon="10.906858132582437"><ele>93.0</ele><time>2026-04-18T07:44:51Z</time></trkpt><trkpt lat="44.54748102349345" lon="10.906976236072014"><ele>93.0</ele><time>2026-04-18T07:44:53Z</time></trkpt><trkpt lat="44.54744672280854" lon="10.907095490688418"><ele>93.0</ele><time>2026-04-18T07:44:55Z</time></trkpt><trkpt lat="44.54740737196618" lon="10.90721092957649"><ele>93.0</ele><time>2026-04-18T07:44:57Z</time></trkpt><trkpt lat="44.547368160590715" lon="10.907332403409944"><ele>93.0</ele><time>2026-04-18T07:44:59Z</time></trkpt><trkpt lat="44.54732512308123" lon="10.907445914381647"><ele>93.0</ele><time>2026-04-18T07:45:01Z</time></trkpt><trkpt lat="44.54728668868345" lon="10.907562729956712"><ele>93.4</ele><time>2026-04-18T07:45:03Z</time></trkpt><trkpt lat="44.547250682392274" lon="10.907689313127332"><ele>93.80000000000001</ele><time>2026-04-18T07:45:05Z</time></trkpt><trkpt lat="44.54721291199211" lon="10.907805804482505"><ele>94.2</ele><time>2026-04-18T07:45:07Z</time></trkpt><trkpt lat="44.547178065244495" lon="10.907927972068958"><ele>94.6</ele><time>2026-04-18T07:45:09Z</time></trkpt><trkpt lat="44.547144330761114" lon="10.908052461469985"><ele>95.0</ele><time>2026-04-18T07:45:11Z</time></trkpt><trkpt lat="44.547098968511555" lon="10.90817407506696"><ele>95.0</ele><time>2026-04-18T07:45:13Z</time></trkpt><trkpt lat="44.547063473505716" lon="10.908306354112193"><ele>95.0</ele><time>2026-04-18T07:45:15Z</time></trkpt><trkpt lat="44.54702316560786" lon="10.908435340067411"><ele>95.0</ele><time>2026-04-18T07:45:17Z</time></trkpt><trkpt lat="44.54698223483581" lon="10.908558625649043"><ele>95.0</ele><time>2026-04-18T07:45:19Z</time></trkpt><trkpt lat="44.546952384769504" lon="10.908693967559397"><ele>95.0</ele><time>2026-04-18T07:45:21Z</time></trkpt><trkpt lat="44.546910166609344" lon="10.908810038974611"><ele>95.2</ele><time>2026-04-18T07:45:23Z</time></trkpt><trkpt lat="44.54686683791819" lon="10.908933243079188"><ele>95.4</ele><time>2026-04-18T07:45:25Z</time></trkpt><trkpt lat="44.54682811032033" lon="10.909048231331445"><ele>95.6</ele><time>2026-04-18T07:45:27Z</time></trkpt><trkpt lat="44.54678632200199" lon="10.909177375740734"><ele>95.8</ele><time>2026-04-18T07:45:29Z</time></trkpt><trkpt lat="44.546737336488135" lon="10.909309619984976"><ele>96.0</ele><time>2026-04-18T07:45:31Z</time></trkpt><trkpt lat="44.546698764856814" lon="10.90943975722635"><ele>96.0</ele><time>2026-04-18T07:45:33Z</time></trkpt><trkpt lat="44.54665887234946" lon="10.909575629900818"><ele>96.0</ele><time>2026-04-18T07:45:35Z</time></trkpt><trkpt lat="44.546610274238375" lon="10.909707875932833"><ele>96.0</ele><time>2026-04-18T07:45:37Z</time></trkpt><trkpt lat="44.546569071474096" lon="10.909844198321807"><ele>96.0</ele><time>2026-04-18T07:45:39Z</time></trkpt><trkpt lat="44.54652778562318" lon="10.909983877596684"><ele>96.0</ele><time>2026-04-18T07:45:41Z</time></trkpt><trkpt lat="44.546486346034" lon="10.910114931771762"><ele>96.0</ele><time>2026-04-18T07:45:43Z</time></trkpt><trkpt lat="44.54644120052141" lon="10.910258622098505"><ele>96.0</ele><time>2026-04-18T07:45:45Z</time></trkpt><trkpt lat="44.54641355599411" lon="10.91037021296202"><ele>96.0</ele><time>2026-04-18T07:45:47Z</time></trkpt><trkpt lat="44.5463841944333" lon="10.91045796075936"><ele>96.0</ele><time>2026-04-18T07:45:50Z</time></trkpt><trkpt lat="44.546202010328884" lon="10.910416947666903"><ele>95.5</ele><time>2026-04-18T07:45:55Z</time></trkpt><trkpt lat="44.546127065454606" lon="10.91037756760475"><ele>95.0</ele><time>2026-04-18T07:45:57Z</time></trkpt><trkpt lat="44.54604824599728" lon="10.910333277747458"><ele>94.5</ele><time>2026-04-18T07:45:59Z</time></trkpt><trkpt lat="44.54596573447923" lon="10.910379197518958"><ele>94.0</ele><time>2026-04-18T07:46:01Z</time></trkpt><trkpt lat="44.54592031323069" lon="10.91050438621317"><ele>93.5</ele><time>2026-04-18T07:46:03Z</time></trkpt><trkpt lat="44.54587386059826" lon="10.910615233153798"><ele>93.0</ele><time>2026-04-18T07:46:05Z</time></trkpt><trkpt lat="44.54583181160397" lon="10.910727050791193"><ele>93.0</ele><time>2026-04-18T07:46:07Z</time></trkpt><trkpt lat="44.54578558623793" lon="10.910850422156118"><ele>93.0</ele><time>2026-04-18T07:46:09Z</time></trkpt><trkpt lat="44.54574320576252" lon="10.910966546579978"><ele>93.0</ele><time>2026-04-18T07:46:11Z</time></trkpt><trkpt lat="44.54573360116305" lon="10.911104204712116"><ele>93.0</ele><time>2026-04-18T07:46:13Z</time></trkpt><trkpt lat="44.5458260725143" lon="10.911195534015873"><ele>93.0</ele><time>2026-04-18T07:46:15Z</time></trkpt><trkpt lat="44.54591903386607" lon="10.911271221744189"><ele>92.2</ele><time>2026-04-18T07:46:17Z</time></trkpt><trkpt lat="44.54596964627362" lon="10.91138631944235"><ele>91.4</ele><time>2026-04-18T07:46:19Z</time></trkpt><trkpt lat="44.545939637229694" lon="10.911545354014425"><ele>90.60000000000001</ele><time>2026-04-18T07:46:21Z</time></trkpt><trkpt lat="44.54596036610606" lon="10.911659398112164"><ele>89.80000000000001</ele><time>2026-04-18T07:46:22Z</time></trkpt><trkpt lat="44.54590710927328" lon="10.911805411300056"><ele>89.0</ele><time>2026-04-18T07:46:24Z</time></trkpt><trkpt lat="44.54585476783658" lon="10.911948914754419"><ele>88.75</ele><time>2026-04-18T07:46:26Z</time></trkpt><trkpt lat="44.54580433303888" lon="10.912087879325291"><ele>88.5</ele><time>2026-04-18T07:46:28Z</time></trkpt><trkpt lat="44.54575374088627" lon="10.9122276354595"><ele>88.25</ele><time>2026-04-18T07:46:30Z</time></trkpt><trkpt lat="44.545701545818154" lon="10.912374082130416"><ele>88.0</ele><time>2026-04-18T07:46:32Z</time></trkpt><trkpt lat="44.5456515942759" lon="10.912514821511735"><ele>88.2</ele><time>2026-04-18T07:46:34Z</time></trkpt><trkpt lat="44.54560228089283" lon="10.91265290423171"><ele>88.4</ele><time>2026-04-18T07:46:36Z</time></trkpt><trkpt lat="44.545555168105075" lon="10.912783266671545"><ele>88.60000000000001</ele><time>2026-04-18T07:46:38Z</time></trkpt><trkpt lat="44.545507675929315" lon="10.912914877968667"><ele>88.80000000000001</ele><time>2026-04-18T07:46:40Z</time></trkpt><trkpt lat="44.54546692199641" lon="10.913028424700896"><ele>89.0</ele><time>2026-04-18T07:46:42Z</time></trkpt><trkpt lat="44.5454376425599" lon="10.913109847494903"><ele>89.0</ele><time>2026-04-18T07:46:45Z</time></trkpt><trkpt lat="44.54526364818552" lon="10.91299402411595"><ele>89.0</ele><time>2026-04-18T07:46:46Z</time></trkpt><trkpt lat="44.54519843446844" lon="10.912914765208821"><ele>89.0</ele><time>2026-04-18T07:46:48Z</time></trkpt><trkpt lat="44.54512221086717" lon="10.912849370647242"><ele>89.0</ele><time>2026-04-18T07:46:50Z</time></trkpt><trkpt lat="44.54504003634314" lon="10.912773571116531"><ele>89.0</ele><time>2026-04-18T07:46:52Z</time></trkpt><trkpt lat="44.54495454425843" lon="10.912696700768418"><ele>89.0</ele><time>2026-04-18T07:46:54Z</time></trkpt><trkpt lat="44.54486083832185" lon="10.9126175246751"><ele>89.0</ele><time>2026-04-18T07:46:56Z</time></trkpt><trkpt lat="44.54477036700866" lon="10.912535787075802"><ele>89.0</ele><time>2026-04-18T07:46:58Z</time></trkpt><trkpt lat="44.5446826862766" lon="10.91245239725469"><ele>89.0</ele><time>2026-04-18T07:47:00Z</time></trkpt><trkpt lat="44.5446027384004" lon="10.912366361195208"><ele>89.2</ele><time>2026-04-18T07:47:02Z</time></trkpt><trkpt lat="44.54452008748357" lon="10.912293396426154"><ele>89.4</ele><time>2026-04-18T07:47:04Z</time></trkpt><trkpt lat="44.54442943245085" lon="10.912221017916245"><ele>89.6</ele><time>2026-04-18T07:47:06Z</time></trkpt><trkpt lat="44.54433833955862" lon="10.912159178415102"><ele>89.8</ele><time>2026-04-18T07:47:08Z</time></trkpt><trkpt lat="44.54424095114325" lon="10.912134099001145"><ele>90.0</ele><time>2026-04-18T07:47:10Z</time></trkpt><trkpt lat="44.54414506690467" lon="10.912104537024845"><ele>90.0</ele><time>2026-04-18T07:47:12Z</time></trkpt><trkpt lat="44.544052314613346" lon="10.91207652860656"><ele>90.0</ele><time>2026-04-18T07:47:14Z</time></trkpt><trkpt lat="44.543953361951516" lon="10.912043653215198"><ele>90.0</ele><time>2026-04-18T07:47:16Z</time></trkpt><trkpt lat="44.54387456036678" lon="10.911968248352096"><ele>90.0</ele><time>2026-04-18T07:47:18Z</time></trkpt><trkpt lat="44.543785074419" lon="10.911900262992072"><ele>90.0</ele><time>2026-04-18T07:47:20Z</time></trkpt><trkpt lat="44.54368751285134" lon="10.911839159437896"><ele>90.2</ele><time>2026-04-18T07:47:22Z</time></trkpt><trkpt lat="44.543611090615286" lon="10.911763696341733"><ele>90.4</ele><time>2026-04-18T07:47:24Z</time></trkpt><trkpt lat="44.543534894230056" lon="10.911697908566127"><ele>90.6</ele><time>2026-04-18T07:47:26Z</time></trkpt><trkpt lat="44.54344663927417" lon="10.91162274746887"><ele>90.8</ele><time>2026-04-18T07:47:28Z</time></trkpt><trkpt lat="44.54336850483842" lon="10.911547292963107"><ele>91.0</ele><time>2026-04-18T07:47:30Z</time></trkpt><trkpt lat="44.54329193443112" lon="10.911480922220914"><ele>91.0</ele><time>2026-04-18T07:47:32Z</time></trkpt><trkpt lat="44.54320542086559" lon="10.911413885183311"><ele>91.0</ele><time>2026-04-18T07:47:34Z</time></trkpt><trkpt lat="44.5431316085062" lon="10.911336619843365"><ele>91.0</ele><time>2026-04-18T07:47:36Z</time></trkpt><trkpt lat="44.54305724291713" lon="10.911259346139609"><ele>91.0</ele><time>2026-04-18T07:47:38Z</time></trkpt><trkpt lat="44.54297515575343" lon="10.911171111479904"><ele>91.0</ele><time>2026-04-18T07:47:40Z</time></trkpt><trkpt lat="44.54290643017125" lon="10.911077887961111"><ele>91.19999999999999</ele><time>2026-04-18T07:47:42Z</time></trkpt><trkpt lat="44.542838336534935" lon="10.910984113409032"><ele>91.39999999999999</ele><time>2026-04-18T07:47:44Z</time></trkpt><trkpt lat="44.54277040544565" lon="10.910879738371545"><ele>91.6</ele><time>2026-04-18T07:47:46Z</time></trkpt><trkpt lat="44.542708865324606" lon="10.910772956451071"><ele>91.8</ele><time>2026-04-18T07:47:48Z</time></trkpt><trkpt lat="44.54264439740994" lon="10.910661467604124"><ele>92.0</ele><time>2026-04-18T07:47:50Z</time></trkpt><trkpt lat="44.54257896874962" lon="10.910563605792522"><ele>92.0</ele><time>2026-04-18T07:47:52Z</time></trkpt><trkpt lat="44.542497192950364" lon="10.910478255849178"><ele>92.0</ele><time>2026-04-18T07:47:54Z</time></trkpt><trkpt lat="44.54244741389259" lon="10.910356995420445"><ele>92.0</ele><time>2026-04-18T07:47:56Z</time></trkpt><trkpt lat="44.542400907672416" lon="10.910237267223764"><ele>92.0</ele><time>2026-04-18T07:47:58Z</time></trkpt><trkpt lat="44.542338716099394" lon="10.910125634112251"><ele>92.0</ele><time>2026-04-18T07:48:00Z</time></trkpt><trkpt lat="44.542268085803755" lon="10.91003214181938"><ele>92.6</ele><time>2026-04-18T07:48:02Z</time></trkpt><trkpt lat="44.54219501600603" lon="10.909927183001676"><ele>93.19999999999999</ele><time>2026-04-18T07:48:04Z</time></trkpt><trkpt lat="44.542107127702046" lon="10.909856505065523"><ele>93.8</ele><time>2026-04-18T07:48:06Z</time></trkpt><trkpt lat="44.5420272084968" lon="10.909792279235583"><ele>94.4</ele><time>2026-04-18T07:48:08Z</time></trkpt><trkpt lat="44.541958810329106" lon="10.909721363958027"><ele>95.0</ele><time>2026-04-18T07:48:10Z</time></trkpt><trkpt lat="44.54189293285031" lon="10.909632761109782"><ele>95.16666666666667</ele><time>2026-04-18T07:48:12Z</time></trkpt><trkpt lat="44.54187262892925" lon="10.909507232328734"><ele>95.33333333333334</ele><time>2026-04-18T07:48:14Z</time></trkpt><trkpt lat="44.5418297505448" lon="10.909390486883154"><ele>95.5</ele><time>2026-04-18T07:48:16Z</time></trkpt><trkpt lat="44.54175307786724" lon="10.909337916617378"><ele>95.66666666666667</ele><time>2026-04-18T07:48:18Z</time></trkpt><trkpt lat="44.541669579730325" lon="10.909291879467094"><ele>95.83333333333333</ele><time>2026-04-18T07:48:20Z</time></trkpt><trkpt lat="44.54160238762164" lon="10.90921270268281"><ele>96.0</ele><time>2026-04-18T07:48:22Z</time></trkpt><trkpt lat="44.5415432768411" lon="10.909132175760417"><ele>96.0</ele><time>2026-04-18T07:48:24Z</time></trkpt><trkpt lat="44.54147694119471" lon="10.909075792226236"><ele>96.0</ele><time>2026-04-18T07:48:26Z</time></trkpt><trkpt lat="44.54140554128308" lon="10.909020444642438"><ele>96.0</ele><time>2026-04-18T07:48:29Z</time></trkpt><trkpt lat="44.541332147319494" lon="10.908943588192853"><ele>96.0</ele><time>2026-04-18T07:48:32Z</time></trkpt><trkpt lat="44.54127864510087" lon="10.908882228187542"><ele>96.0</ele><time>2026-04-18T07:48:35Z</time></trkpt><trkpt lat="44.54121752688573" lon="10.90881180347571"><ele>96.0</ele><time>2026-04-18T07:48:39Z</time></trkpt><trkpt lat="44.54116143922166" lon="10.90875731883078"><ele>96.33333333333333</ele><time>2026-04-18T07:48:41Z</time></trkpt><trkpt lat="44.54110335585155" lon="10.90867216889204"><ele>96.66666666666666</ele><time>2026-04-18T07:48:44Z</time></trkpt><trkpt lat="44.54103854159027" lon="10.908603867808472"><ele>97.0</ele><time>2026-04-18T07:48:47Z</time></trkpt><trkpt lat="44.54096714617767" lon="10.9085287155966"><ele>97.33333333333333</ele><time>2026-04-18T07:48:50Z</time></trkpt><trkpt lat="44.54091243654991" lon="10.908445083440483"><ele>97.66666666666666</ele><time>2026-04-18T07:48:55Z</time></trkpt><trkpt lat="44.54084522686644" lon="10.908396956703518"><ele>98.0</ele><time>2026-04-18T07:48:58Z</time></trkpt><trkpt lat="44.540769413267384" lon="10.908370470221572"><ele>98.0</ele><time>2026-04-18T07:49:00Z</time></trkpt><trkpt lat="44.54070465484592" lon="10.908313469086597"><ele>98.0</ele><time>2026-04-18T07:49:02Z</time></trkpt><trkpt lat="44.54064327570598" lon="10.908248916984887"><ele>98.0</ele><time>2026-04-18T07:49:04Z</time></trkpt><trkpt lat="44.54059734858688" lon="10.908179060025223"><ele>98.0</ele><time>2026-04-18T07:49:06Z</time></trkpt><trkpt lat="44.54054362584405" lon="10.90810609177372"><ele>98.0</ele><time>2026-04-18T07:49:08Z</time></trkpt><trkpt lat="44.540487385318634" lon="10.908045947913397"><ele>98.0</ele><time>2026-04-18T07:49:10Z</time></trkpt><trkpt lat="44.540431723603234" lon="10.907965409962411"><ele>98.0</ele><time>2026-04-18T07:49:12Z</time></trkpt><trkpt lat="44.540379777476105" lon="10.907880041703498"><ele>98.33333333333333</ele><time>2026-04-18T07:49:14Z</time></trkpt><trkpt lat="44.54031945102132" lon="10.907803290496668"><ele>98.66666666666666</ele><time>2026-04-18T07:49:16Z</time></trkpt><trkpt lat="44.540259355051916" lon="10.907734902081819"><ele>99.0</ele><time>2026-04-18T07:49:18Z</time></trkpt><trkpt lat="44.54020533560961" lon="10.907655824530847"><ele>99.33333333333334</ele><time>2026-04-18T07:49:20Z</time></trkpt><trkpt lat="44.54013513956325" lon="10.907580744410089"><ele>99.66666666666667</ele><time>2026-04-18T07:49:22Z</time></trkpt><trkpt lat="44.54006904925141" lon="10.90749204063322"><ele>100.0</ele><time>2026-04-18T07:49:24Z</time></trkpt><trkpt lat="44.540007894112485" lon="10.907404287215162"><ele>100.00000000000001</ele><time>2026-04-18T07:49:26Z</time></trkpt><trkpt lat="44.53993781458552" lon="10.90732163954101"><ele>100.0</ele><time>2026-04-18T07:49:28Z</time></trkpt><trkpt lat="44.53986669906854" lon="10.907239228971752"><ele>100.0</ele><time>2026-04-18T07:49:30Z</time></trkpt><trkpt lat="44.53979546911382" lon="10.907156981913266"><ele>100.0</ele><time>2026-04-18T07:49:32Z</time></trkpt><trkpt lat="44.539733087416515" lon="10.907084513716967"><ele>100.00000000000001</ele><time>2026-04-18T07:49:34Z</time></trkpt><trkpt lat="44.53966843430154" lon="10.907014384694415"><ele>100.0</ele><time>2026-04-18T07:49:36Z</time></trkpt><trkpt lat="44.53960766873302" lon="10.906925738616916"><ele>100.00000000000001</ele><time>2026-04-18T07:49:38Z</time></trkpt><trkpt lat="44.53953613148214" lon="10.906852393421513"><ele>100.0</ele><time>2026-04-18T07:49:40Z</time></trkpt><trkpt lat="44.539477207366716" lon="10.90677801116874"><ele>100.0</ele><time>2026-04-18T07:49:42Z</time></trkpt><trkpt lat="44.539413578223716" lon="10.906682140799012"><ele>100.0</ele><time>2026-04-18T07:49:44Z</time></trkpt><trkpt lat="44.53934790463308" lon="10.906592334894567"><ele>100.00000000000001</ele><time>2026-04-18T07:49:46Z</time></trkpt><trkpt lat="44.539275395888325" lon="10.906503363293526"><ele>100.0</ele><time>2026-04-18T07:49:48Z</time></trkpt><trkpt lat="44.53922873098521" lon="10.906397690124248"><ele>100.00000000000001</ele><time>2026-04-18T07:49:50Z</time></trkpt><trkpt lat="44.53918547298523" lon="10.906287632561071"><ele>100.0</ele><time>2026-04-18T07:49:52Z</time></trkpt><trkpt lat="44.539116284731044" lon="10.906206993633973"><ele>100.0</ele><time>2026-04-18T07:49:54Z</time></trkpt><trkpt lat="44.53905238903233" lon="10.906136166027228"><ele>100.0</ele><time>2026-04-18T07:49:56Z</time></trkpt><trkpt lat="44.53898050525331" lon="10.906062558713158"><ele>100.00000000000001</ele><time>2026-04-18T07:49:58Z</time></trkpt><trkpt lat="44.53892930934725" lon="10.905973191404344"><ele>100.0</ele><time>2026-04-18T07:50:00Z</time></trkpt><trkpt lat="44.53887307224323" lon="10.905899232953063"><ele>99.83333333333334</ele><time>2026-04-18T07:50:02Z</time></trkpt><trkpt lat="44.53881488563273" lon="10.905852864409148"><ele>99.66666666666667</ele><time>2026-04-18T07:50:04Z</time></trkpt><trkpt lat="44.53874600576609" lon="10.905829697078499"><ele>99.5</ele><time>2026-04-18T07:50:06Z</time></trkpt><trkpt lat="44.53867919055458" lon="10.905837090321592"><ele>99.33333333333334</ele><time>2026-04-18T07:50:08Z</time></trkpt><trkpt lat="44.538586777348236" lon="10.90578238147028"><ele>99.16666666666667</ele><time>2026-04-18T07:50:10Z</time></trkpt><trkpt lat="44.53851488895391" lon="10.905679789107369"><ele>99.0</ele><time>2026-04-18T07:50:12Z</time></trkpt><trkpt lat="44.53845177013743" lon="10.905599415540797"><ele>99.0</ele><time>2026-04-18T07:50:14Z</time></trkpt><trkpt lat="44.53836751304847" lon="10.905510470134171"><ele>99.0</ele><time>2026-04-18T07:50:16Z</time></trkpt><trkpt lat="44.5382901148556" lon="10.90542435432649"><ele>99.0</ele><time>2026-04-18T07:50:18Z</time></trkpt><trkpt lat="44.538210414657435" lon="10.905346855430874"><ele>99.0</ele><time>2026-04-18T07:50:20Z</time></trkpt><trkpt lat="44.5381384210383" lon="10.905265694933783"><ele>99.0</ele><time>2026-04-18T07:50:22Z</time></trkpt><trkpt lat="44.538042987527724" lon="10.90523775546373"><ele>99.0</ele><time>2026-04-18T07:50:24Z</time></trkpt><trkpt lat="44.53794585697022" lon="10.905226897167944"><ele>99.0</ele><time>2026-04-18T07:50:26Z</time></trkpt><trkpt lat="44.53785407816276" lon="10.905153016132356"><ele>99.0</ele><time>2026-04-18T07:50:28Z</time></trkpt><trkpt lat="44.53775449224429" lon="10.905078840461085"><ele>99.0</ele><time>2026-04-18T07:50:30Z</time></trkpt><trkpt lat="44.53766118246829" lon="10.904990739633648"><ele>99.0</ele><time>2026-04-18T07:50:32Z</time></trkpt><trkpt lat="44.537561995592654" lon="10.90489370252758"><ele>99.4</ele><time>2026-04-18T07:50:34Z</time></trkpt><trkpt lat="44.53746707384983" lon="10.904797020895597"><ele>99.80000000000001</ele><time>2026-04-18T07:50:36Z</time></trkpt><trkpt lat="44.5373713109638" lon="10.904709260346252"><ele>100.19999999999999</ele><time>2026-04-18T07:50:38Z</time></trkpt><trkpt lat="44.537276778460395" lon="10.90461519056692"><ele>100.6</ele><time>2026-04-18T07:50:40Z</time></trkpt><trkpt lat="44.53719559161443" lon="10.904540452945593"><ele>101.0</ele><time>2026-04-18T07:50:42Z</time></trkpt><trkpt lat="44.537111245576135" lon="10.904519502749256"><ele>100.8</ele><time>2026-04-18T07:50:44Z</time></trkpt><trkpt lat="44.53701588781048" lon="10.904496239426795"><ele>100.6</ele><time>2026-04-18T07:50:46Z</time></trkpt><trkpt lat="44.53692637518077" lon="10.904441663887974"><ele>100.4</ele><time>2026-04-18T07:50:48Z</time></trkpt><trkpt lat="44.536868858143244" lon="10.904329779901094"><ele>100.2</ele><time>2026-04-18T07:50:50Z</time></trkpt><trkpt lat="44.53680424192834" lon="10.904249895956411"><ele>100.0</ele><time>2026-04-18T07:50:52Z</time></trkpt><trkpt lat="44.536732058562635" lon="10.904167092420085"><ele>100.0</ele><time>2026-04-18T07:50:54Z</time></trkpt><trkpt lat="44.536658313139995" lon="10.90407962812498"><ele>100.0</ele><time>2026-04-18T07:50:56Z</time></trkpt><trkpt lat="44.53657398848087" lon="10.903999087376192"><ele>100.0</ele><time>2026-04-18T07:50:58Z</time></trkpt><trkpt lat="44.53647909318728" lon="10.903966435451181"><ele>100.0</ele><time>2026-04-18T07:51:00Z</time></trkpt><trkpt lat="44.53636353488991" lon="10.903914579403795"><ele>100.0</ele><time>2026-04-18T07:51:02Z</time></trkpt><trkpt lat="44.53627958730044" lon="10.903810012090084"><ele>100.8</ele><time>2026-04-18T07:51:04Z</time></trkpt><trkpt lat="44.536204640820785" lon="10.90371561280156"><ele>101.6</ele><time>2026-04-18T07:51:06Z</time></trkpt><trkpt lat="44.53613240919628" lon="10.903606815930429"><ele>102.4</ele><time>2026-04-18T07:51:08Z</time></trkpt><trkpt lat="44.53604501240144" lon="10.903539779580223"><ele>103.2</ele><time>2026-04-18T07:51:10Z</time></trkpt><trkpt lat="44.53596312318026" lon="10.903520630613356"><ele>104.0</ele><time>2026-04-18T07:51:12Z</time></trkpt><trkpt lat="44.535868490652774" lon="10.90348472864557"><ele>103.80000000000001</ele><time>2026-04-18T07:51:14Z</time></trkpt><trkpt lat="44.53579697073136" lon="10.903412987553345"><ele>103.60000000000001</ele><time>2026-04-18T07:51:16Z</time></trkpt><trkpt lat="44.53573715574166" lon="10.903306614801345"><ele>103.4</ele><time>2026-04-18T07:51:18Z</time></trkpt><trkpt lat="44.5356592893797" lon="10.903222465293583"><ele>103.2</ele><time>2026-04-18T07:51:20Z</time></trkpt><trkpt lat="44.53558360116424" lon="10.903143096897491"><ele>103.0</ele><time>2026-04-18T07:51:22Z</time></trkpt><trkpt lat="44.53548852019215" lon="10.903063835278665"><ele>103.0</ele><time>2026-04-18T07:51:24Z</time></trkpt><trkpt lat="44.53539443824366" lon="10.902995049689777"><ele>103.0</ele><time>2026-04-18T07:51:26Z</time></trkpt><trkpt lat="44.53531953111478" lon="10.90291621260614"><ele>103.0</ele><time>2026-04-18T07:51:28Z</time></trkpt><trkpt lat="44.535234630322904" lon="10.902827405161137"><ele>103.0</ele><time>2026-04-18T07:51:30Z</time></trkpt><trkpt lat="44.535145741763735" lon="10.902729257227895"><ele>103.0</ele><time>2026-04-18T07:51:32Z</time></trkpt><trkpt lat="44.53505764441719" lon="10.90262958439615"><ele>103.4</ele><time>2026-04-18T07:51:34Z</time></trkpt><trkpt lat="44.53495656278843" lon="10.902551634863286"><ele>103.80000000000001</ele><time>2026-04-18T07:51:36Z</time></trkpt><trkpt lat="44.53486632297954" lon="10.902505123909812"><ele>104.2</ele><time>2026-04-18T07:51:38Z</time></trkpt><trkpt lat="44.534753698037186" lon="10.902466405123574"><ele>104.6</ele><time>2026-04-18T07:51:40Z</time></trkpt><trkpt lat="44.53465634234026" lon="10.902410183109303"><ele>105.0</ele><time>2026-04-18T07:51:42Z</time></trkpt><trkpt lat="44.53456215547287" lon="10.902338873362993"><ele>105.2</ele><time>2026-04-18T07:51:44Z</time></trkpt><trkpt lat="44.534462285093475" lon="10.902277685790184"><ele>105.4</ele><time>2026-04-18T07:51:46Z</time></trkpt><trkpt lat="44.53435832622063" lon="10.902205933485877"><ele>105.6</ele><time>2026-04-18T07:51:48Z</time></trkpt><trkpt lat="44.534258519273514" lon="10.90214178475049"><ele>105.8</ele><time>2026-04-18T07:51:50Z</time></trkpt><trkpt lat="44.53416945488093" lon="10.902068240278648"><ele>106.0</ele><time>2026-04-18T07:51:52Z</time></trkpt><trkpt lat="44.53408245144009" lon="10.901993985045507"><ele>106.00000000000001</ele><time>2026-04-18T07:51:54Z</time></trkpt><trkpt lat="44.53398564243456" lon="10.901945980532052"><ele>106.0</ele><time>2026-04-18T07:51:56Z</time></trkpt><trkpt lat="44.533892895541506" lon="10.901903624503918"><ele>106.0</ele><time>2026-04-18T07:51:58Z</time></trkpt><trkpt lat="44.53380517736859" lon="10.901860574966161"><ele>106.0</ele><time>2026-04-18T07:52:00Z</time></trkpt><trkpt lat="44.533735482916185" lon="10.90182721827626"><ele>106.00000000000001</ele><time>2026-04-18T07:52:02Z</time></trkpt><trkpt lat="44.53367165516077" lon="10.90180503198457"><ele>106.0</ele><time>2026-04-18T07:52:04Z</time></trkpt><trkpt lat="44.53358780957514" lon="10.901758748955109"><ele>106.16666666666667</ele><time>2026-04-18T07:52:07Z</time></trkpt><trkpt lat="44.533507184489814" lon="10.901719920865224"><ele>106.33333333333334</ele><time>2026-04-18T07:52:10Z</time></trkpt><trkpt lat="44.53343109900759" lon="10.901668581756718"><ele>106.5</ele><time>2026-04-18T07:52:13Z</time></trkpt><trkpt lat="44.5333543491288" lon="10.901613685733889"><ele>106.66666666666666</ele><time>2026-04-18T07:52:16Z</time></trkpt><trkpt lat="44.53327173915732" lon="10.901552678332822"><ele>106.83333333333333</ele><time>2026-04-18T07:52:19Z</time></trkpt><trkpt lat="44.5332004955572" lon="10.901496159287776"><ele>107.0</ele><time>2026-04-18T07:52:21Z</time></trkpt><trkpt lat="44.53312159758217" lon="10.901436013619888"><ele>107.0</ele><time>2026-04-18T07:52:23Z</time></trkpt><trkpt lat="44.533031743427294" lon="10.901381210771207"><ele>106.99999999999999</ele><time>2026-04-18T07:52:25Z</time></trkpt><trkpt lat="44.53293988294032" lon="10.901316650140673"><ele>106.99999999999999</ele><time>2026-04-18T07:52:27Z</time></trkpt><trkpt lat="44.53284927292849" lon="10.901261660924817"><ele>107.0</ele><time>2026-04-18T07:52:29Z</time></trkpt><trkpt lat="44.53274949360002" lon="10.90123620743459"><ele>107.0</ele><time>2026-04-18T07:52:31Z</time></trkpt><trkpt lat="44.532649287834" lon="10.901223604482901"><ele>107.0</ele><time>2026-04-18T07:52:33Z</time></trkpt><trkpt lat="44.532552415077696" lon="10.90119838508011"><ele>106.99999999999999</ele><time>2026-04-18T07:52:35Z</time></trkpt><trkpt lat="44.53245779649924" lon="10.901157155481947"><ele>106.99999999999999</ele><time>2026-04-18T07:52:37Z</time></trkpt><trkpt lat="44.532326120518405" lon="10.901070616540597"><ele>107.0</ele><time>2026-04-18T07:52:40Z</time></trkpt><trkpt lat="44.53224364902399" lon="10.901024408705128"><ele>107.0</ele><time>2026-04-18T07:52:42Z</time></trkpt><trkpt lat="44.532171934176894" lon="10.900955275286382"><ele>107.00000000000001</ele><time>2026-04-18T07:52:44Z</time></trkpt><trkpt lat="44.532114551086345" lon="10.90086294818304"><ele>107.0</ele><time>2026-04-18T07:52:46Z</time></trkpt><trkpt lat="44.532066260831776" lon="10.900775883784567"><ele>107.0</ele><time>2026-04-18T07:52:48Z</time></trkpt><trkpt lat="44.53201736648513" lon="10.900711156460757"><ele>107.0</ele><time>2026-04-18T07:52:50Z</time></trkpt><trkpt lat="44.53197694942155" lon="10.900636741826029"><ele>107.0</ele><time>2026-04-18T07:52:52Z</time></trkpt><trkpt lat="44.531934233543986" lon="10.90057017553718"><ele>107.00000000000001</ele><time>2026-04-18T07:52:54Z</time></trkpt><trkpt lat="44.531868592331314" lon="10.900524884787973"><ele>107.0</ele><time>2026-04-18T07:52:56Z</time></trkpt><trkpt lat="44.531795969655654" lon="10.900486845849109"><ele>107.33333333333333</ele><time>2026-04-18T07:52:58Z</time></trkpt><trkpt lat="44.531712958021025" lon="10.900475518806283"><ele>107.66666666666666</ele><time>2026-04-18T07:53:00Z</time></trkpt><trkpt lat="44.53162760950687" lon="10.900452220098657"><ele>108.0</ele><time>2026-04-18T07:53:02Z</time></trkpt><trkpt lat="44.53154109615758" lon="10.900437644778217"><ele>108.33333333333334</ele><time>2026-04-18T07:53:04Z</time></trkpt><trkpt lat="44.531460240134905" lon="10.900420947531542"><ele>108.66666666666667</ele><time>2026-04-18T07:53:06Z</time></trkpt><trkpt lat="44.53137748921675" lon="10.900419578573613"><ele>109.0</ele><time>2026-04-18T07:53:08Z</time></trkpt><trkpt lat="44.53129347925193" lon="10.900437082237266"><ele>109.80000000000001</ele><time>2026-04-18T07:53:10Z</time></trkpt><trkpt lat="44.53121733416967" lon="10.900484311070306"><ele>110.60000000000001</ele><time>2026-04-18T07:53:12Z</time></trkpt><trkpt lat="44.53114424902696" lon="10.9005584441195"><ele>111.4</ele><time>2026-04-18T07:53:14Z</time></trkpt><trkpt lat="44.53107093963756" lon="10.900646912034652"><ele>112.2</ele><time>2026-04-18T07:53:16Z</time></trkpt><trkpt lat="44.53096934282021" lon="10.90071468333735"><ele>113.0</ele><time>2026-04-18T07:53:18Z</time></trkpt><trkpt lat="44.530866048443734" lon="10.90072003341118"><ele>113.0</ele><time>2026-04-18T07:53:20Z</time></trkpt><trkpt lat="44.53076612216114" lon="10.900689988735653"><ele>113.00000000000001</ele><time>2026-04-18T07:53:22Z</time></trkpt><trkpt lat="44.5306878564422" lon="10.900623141176359"><ele>113.00000000000001</ele><time>2026-04-18T07:53:24Z</time></trkpt><trkpt lat="44.530586114715696" lon="10.90060802447473"><ele>113.0</ele><time>2026-04-18T07:53:26Z</time></trkpt><trkpt lat="44.53048812040592" lon="10.900640706999004"><ele>113.0</ele><time>2026-04-18T07:53:28Z</time></trkpt><trkpt lat="44.53039609007525" lon="10.900687620431185"><ele>113.16666666666666</ele><time>2026-04-18T07:53:30Z</time></trkpt><trkpt lat="44.530307949731714" lon="10.900709866278024"><ele>113.33333333333333</ele><time>2026-04-18T07:53:32Z</time></trkpt><trkpt lat="44.53022168397787" lon="10.90073645625979"><ele>113.5</ele><time>2026-04-18T07:53:34Z</time></trkpt><trkpt lat="44.53014219909287" lon="10.9007808421189"><ele>113.66666666666666</ele><time>2026-04-18T07:53:36Z</time></trkpt><trkpt lat="44.5300622841302" lon="10.900818972497705"><ele>113.83333333333333</ele><time>2026-04-18T07:53:38Z</time></trkpt><trkpt lat="44.52998926009038" lon="10.900844700432495"><ele>114.0</ele><time>2026-04-18T07:53:40Z</time></trkpt><trkpt lat="44.52990378857734" lon="10.900860705947926"><ele>114.0</ele><time>2026-04-18T07:53:42Z</time></trkpt><trkpt lat="44.52982930976476" lon="10.900848545163742"><ele>114.0</ele><time>2026-04-18T07:53:44Z</time></trkpt><trkpt lat="44.52975674726891" lon="10.900803192459025"><ele>114.0</ele><time>2026-04-18T07:53:46Z</time></trkpt><trkpt lat="44.52968775191919" lon="10.900756650418241"><ele>114.0</ele><time>2026-04-18T07:53:48Z</time></trkpt><trkpt lat="44.52962227134418" lon="10.900692644045824"><ele>114.0</ele><time>2026-04-18T07:53:50Z</time></trkpt><trkpt lat="44.529550316307564" lon="10.90067744385461"><ele>114.0</ele><time>2026-04-18T07:53:52Z</time></trkpt><trkpt lat="44.529473340148456" lon="10.900658960673674"><ele>114.16666666666667</ele><time>2026-04-18T07:53:54Z</time></trkpt><trkpt lat="44.52939517621" lon="10.900639232149521"><ele>114.33333333333334</ele><time>2026-04-18T07:53:56Z</time></trkpt><trkpt lat="44.52930742746014" lon="10.900615331938612"><ele>114.5</ele><time>2026-04-18T07:53:58Z</time></trkpt><trkpt lat="44.529241416759625" lon="10.900550616304532"><ele>114.66666666666667</ele><time>2026-04-18T07:54:00Z</time></trkpt><trkpt lat="44.529170813487" lon="10.900475501189925"><ele>114.83333333333334</ele><time>2026-04-18T07:54:02Z</time></trkpt><trkpt lat="44.529115524811935" lon="10.90038170811004"><ele>115.0</ele><time>2026-04-18T07:54:04Z</time></trkpt><trkpt lat="44.529072765741844" lon="10.900309573503"><ele>115.00000000000001</ele><time>2026-04-18T07:54:06Z</time></trkpt><trkpt lat="44.52900973760085" lon="10.900228956481342"><ele>115.0</ele><time>2026-04-18T07:54:09Z</time></trkpt><trkpt lat="44.52893594306927" lon="10.900187257854938"><ele>115.0</ele><time>2026-04-18T07:54:11Z</time></trkpt><trkpt lat="44.52885489772028" lon="10.900173693299124"><ele>115.0</ele><time>2026-04-18T07:54:13Z</time></trkpt><trkpt lat="44.52877171295197" lon="10.900197093824408"><ele>115.00000000000001</ele><time>2026-04-18T07:54:15Z</time></trkpt><trkpt lat="44.5286860360539" lon="10.900219992241123"><ele>115.0</ele><time>2026-04-18T07:54:17Z</time></trkpt><trkpt lat="44.52860990024651" lon="10.90023536228376"><ele>114.83333333333334</ele><time>2026-04-18T07:54:19Z</time></trkpt><trkpt lat="44.52852174207165" lon="10.900238003495668"><ele>114.66666666666667</ele><time>2026-04-18T07:54:21Z</time></trkpt><trkpt lat="44.52843228754126" lon="10.900267103265998"><ele>114.5</ele><time>2026-04-18T07:54:23Z</time></trkpt><trkpt lat="44.528352133565704" lon="10.900285993660331"><ele>114.33333333333334</ele><time>2026-04-18T07:54:25Z</time></trkpt><trkpt lat="44.528267505816" lon="10.900267242870878"><ele>114.16666666666667</ele><time>2026-04-18T07:54:27Z</time></trkpt><trkpt lat="44.528184730196074" lon="10.900243446350647"><ele>114.0</ele><time>2026-04-18T07:54:29Z</time></trkpt><trkpt lat="44.528107500666415" lon="10.90024009597769"><ele>114.0</ele><time>2026-04-18T07:54:31Z</time></trkpt><trkpt lat="44.528011589654035" lon="10.900259711507035"><ele>114.0</ele><time>2026-04-18T07:54:33Z</time></trkpt><trkpt lat="44.52793694334362" lon="10.900312858075644"><ele>114.0</ele><time>2026-04-18T07:54:35Z</time></trkpt><trkpt lat="44.52787260247675" lon="10.900351116043579"><ele>114.0</ele><time>2026-04-18T07:54:37Z</time></trkpt><trkpt lat="44.52780636308507" lon="10.900383149369693"><ele>114.0</ele><time>2026-04-18T07:54:39Z</time></trkpt><trkpt lat="44.52775128814424" lon="10.900440144047728"><ele>114.0</ele><time>2026-04-18T07:54:41Z</time></trkpt><trkpt lat="44.5276673430496" lon="10.9004736966329"><ele>114.5</ele><time>2026-04-18T07:54:44Z</time></trkpt><trkpt lat="44.52758237145167" lon="10.90051902022923"><ele>115.0</ele><time>2026-04-18T07:54:47Z</time></trkpt><trkpt lat="44.527513556234254" lon="10.90055162807401"><ele>115.5</ele><time>2026-04-18T07:54:49Z</time></trkpt><trkpt lat="44.527437977961476" lon="10.900587348667067"><ele>116.0</ele><time>2026-04-18T07:54:51Z</time></trkpt><trkpt lat="44.527360588352224" lon="10.900615202891448"><ele>116.5</ele><time>2026-04-18T07:54:53Z</time></trkpt><trkpt lat="44.527277010183894" lon="10.900634305045457"><ele>117.0</ele><time>2026-04-18T07:54:55Z</time></trkpt><trkpt lat="44.52720071775667" lon="10.900608723198784"><ele>117.0</ele><time>2026-04-18T07:54:57Z</time></trkpt><trkpt lat="44.52711231317842" lon="10.900618680839067"><ele>117.0</ele><time>2026-04-18T07:54:59Z</time></trkpt><trkpt lat="44.52704530263923" lon="10.900628944228705"><ele>117.0</ele><time>2026-04-18T07:55:01Z</time></trkpt><trkpt lat="44.52695448537173" lon="10.900644307315163"><ele>117.0</ele><time>2026-04-18T07:55:03Z</time></trkpt><trkpt lat="44.52688217773374" lon="10.900587543919912"><ele>117.0</ele><time>2026-04-18T07:55:05Z</time></trkpt><trkpt lat="44.5268181346444" lon="10.900506353194887"><ele>117.0</ele><time>2026-04-18T07:55:07Z</time></trkpt><trkpt lat="44.52675429317638" lon="10.900436813860345"><ele>116.83333333333333</ele><time>2026-04-18T07:55:09Z</time></trkpt><trkpt lat="44.52667842282622" lon="10.900370793957915"><ele>116.66666666666666</ele><time>2026-04-18T07:55:11Z</time></trkpt><trkpt lat="44.52659227107724" lon="10.900333096251774"><ele>116.5</ele><time>2026-04-18T07:55:13Z</time></trkpt><trkpt lat="44.52652256031401" lon="10.900291175090135"><ele>116.33333333333333</ele><time>2026-04-18T07:55:15Z</time></trkpt><trkpt lat="44.52644594097868" lon="10.90027720002762"><ele>116.16666666666666</ele><time>2026-04-18T07:55:17Z</time></trkpt><trkpt lat="44.5263704182956" lon="10.90029297400607"><ele>116.0</ele><time>2026-04-18T07:55:19Z</time></trkpt><trkpt lat="44.52629626366652" lon="10.90031701093212"><ele>116.16666666666666</ele><time>2026-04-18T07:55:21Z</time></trkpt><trkpt lat="44.52621197928048" lon="10.9003191105012"><ele>116.33333333333333</ele><time>2026-04-18T07:55:23Z</time></trkpt><trkpt lat="44.526143975747615" lon="10.900284794928247"><ele>116.5</ele><time>2026-04-18T07:55:25Z</time></trkpt><trkpt lat="44.52607852033414" lon="10.900214358966293"><ele>116.66666666666666</ele><time>2026-04-18T07:55:27Z</time></trkpt><trkpt lat="44.526017676329644" lon="10.900153181403438"><ele>116.83333333333333</ele><time>2026-04-18T07:55:29Z</time></trkpt><trkpt lat="44.52596306646519" lon="10.90008083664101"><ele>117.0</ele><time>2026-04-18T07:55:31Z</time></trkpt><trkpt lat="44.52593540182879" lon="10.899994010299363"><ele>117.0</ele><time>2026-04-18T07:55:33Z</time></trkpt><trkpt lat="44.52589788395208" lon="10.89989756679466"><ele>117.0</ele><time>2026-04-18T07:55:35Z</time></trkpt><trkpt lat="44.52583396135537" lon="10.899824397005572"><ele>117.0</ele><time>2026-04-18T07:55:37Z</time></trkpt><trkpt lat="44.52575974022033" lon="10.899764513357479"><ele>117.0</ele><time>2026-04-18T07:55:39Z</time></trkpt><trkpt lat="44.52568741670184" lon="10.899704642463652"><ele>117.0</ele><time>2026-04-18T07:55:41Z</time></trkpt><trkpt lat="44.52563068500049" lon="10.899654018541462"><ele>117.0</ele><time>2026-04-18T07:55:43Z</time></trkpt><trkpt lat="44.52556874475125" lon="10.89957256347241"><ele>117.0</ele><time>2026-04-18T07:55:45Z</time></trkpt><trkpt lat="44.52552916435183" lon="10.899500026330182"><ele>117.00000000000001</ele><time>2026-04-18T07:55:47Z</time></trkpt><trkpt lat="44.52547125509566" lon="10.899440885755425"><ele>117.0</ele><time>2026-04-18T07:55:49Z</time></trkpt><trkpt lat="44.525407698877935" lon="10.899403883096149"><ele>117.0</ele><time>2026-04-18T07:55:51Z</time></trkpt><trkpt lat="44.525335958939586" lon="10.89935747626211"><ele>117.00000000000001</ele><time>2026-04-18T07:55:53Z</time></trkpt><trkpt lat="44.525285166870866" lon="10.89929971561664"><ele>117.0</ele><time>2026-04-18T07:55:55Z</time></trkpt><trkpt lat="44.52521981138156" lon="10.899220667519645"><ele>117.0</ele><time>2026-04-18T07:55:58Z</time></trkpt><trkpt lat="44.52516069544136" lon="10.89914159800042"><ele>117.33333333333333</ele><time>2026-04-18T07:56:00Z</time></trkpt><trkpt lat="44.5250999475639" lon="10.899048000795672"><ele>117.66666666666666</ele><time>2026-04-18T07:56:02Z</time></trkpt><trkpt lat="44.52504421504922" lon="10.898952296942696"><ele>118.0</ele><time>2026-04-18T07:56:04Z</time></trkpt><trkpt lat="44.524996527579944" lon="10.89882465777892"><ele>118.33333333333333</ele><time>2026-04-18T07:56:07Z</time></trkpt><trkpt lat="44.52497558484008" lon="10.898723210228361"><ele>118.66666666666666</ele><time>2026-04-18T07:56:10Z</time></trkpt><trkpt lat="44.52497025046446" lon="10.898631787977296"><ele>119.0</ele><time>2026-04-18T07:56:13Z</time></trkpt><trkpt lat="44.52492816845959" lon="10.898528214314284"><ele>118.99999999999999</ele><time>2026-04-18T07:56:17Z</time></trkpt><trkpt lat="44.524873255411805" lon="10.898454269346832"><ele>119.0</ele><time>2026-04-18T07:56:20Z</time></trkpt><trkpt lat="44.52482344471492" lon="10.898339086300984"><ele>119.0</ele><time>2026-04-18T07:56:23Z</time></trkpt><trkpt lat="44.524806180397704" lon="10.898248616790319"><ele>119.0</ele><time>2026-04-18T07:56:25Z</time></trkpt><trkpt lat="44.524786716872555" lon="10.898152256053576"><ele>118.99999999999999</ele><time>2026-04-18T07:56:27Z</time></trkpt><trkpt lat="44.52476093302216" lon="10.898048724722884"><ele>119.0</ele><time>2026-04-18T07:56:29Z</time></trkpt><trkpt lat="44.524729055359664" lon="10.897943179380189"><ele>119.0</ele><time>2026-04-18T07:56:31Z</time></trkpt><trkpt lat="44.52470487927456" lon="10.897839467522411"><ele>119.0</ele><time>2026-04-18T07:56:33Z</time></trkpt><trkpt lat="44.524667360166035" lon="10.897744611511243"><ele>119.0</ele><time>2026-04-18T07:56:35Z</time></trkpt><trkpt lat="44.524643274614064" lon="10.897660573299929"><ele>119.0</ele><time>2026-04-18T07:56:37Z</time></trkpt><trkpt lat="44.52461746463544" lon="10.897572565302447"><ele>119.0</ele><time>2026-04-18T07:56:39Z</time></trkpt><trkpt lat="44.52458858717144" lon="10.897486896749266"><ele>119.0</ele><time>2026-04-18T07:56:41Z</time></trkpt><trkpt lat="44.52454685384295" lon="10.897396833126745"><ele>119.0</ele><time>2026-04-18T07:56:43Z</time></trkpt><trkpt lat="44.5244975460969" lon="10.89731613036306"><ele>119.33333333333333</ele><time>2026-04-18T07:56:45Z</time></trkpt><trkpt lat="44.52446061469366" lon="10.897233220416311"><ele>119.66666666666666</ele><time>2026-04-18T07:56:47Z</time></trkpt><trkpt lat="44.524415733991454" lon="10.897151225006247"><ele>120.0</ele><time>2026-04-18T07:56:49Z</time></trkpt><trkpt lat="44.52435499248322" lon="10.897060685173157"><ele>120.33333333333334</ele><time>2026-04-18T07:56:52Z</time></trkpt><trkpt lat="44.524280516315265" lon="10.896990368421923"><ele>120.66666666666667</ele><time>2026-04-18T07:56:54Z</time></trkpt><trkpt lat="44.52420972945664" lon="10.896866911467736"><ele>121.0</ele><time>2026-04-18T07:56:56Z</time></trkpt><trkpt lat="44.52418343275021" lon="10.896711778001706"><ele>121.16666666666667</ele><time>2026-04-18T07:56:58Z</time></trkpt><trkpt lat="44.524157135443545" lon="10.89660869701756"><ele>121.33333333333334</ele><time>2026-04-18T07:57:00Z</time></trkpt><trkpt lat="44.524121017616324" lon="10.896501308654374"><ele>121.5</ele><time>2026-04-18T07:57:02Z</time></trkpt><trkpt lat="44.52409590225704" lon="10.896407859186512"><ele>121.66666666666666</ele><time>2026-04-18T07:57:04Z</time></trkpt><trkpt lat="44.52406295844914" lon="10.896308702357189"><ele>121.83333333333333</ele><time>2026-04-18T07:57:06Z</time></trkpt><trkpt lat="44.524033287902064" lon="10.896176900350806"><ele>122.0</ele><time>2026-04-18T07:57:08Z</time></trkpt><trkpt lat="44.52399789367133" lon="10.896034393677601"><ele>122.33333333333333</ele><time>2026-04-18T07:57:10Z</time></trkpt><trkpt lat="44.523988037683836" lon="10.89590010042995"><ele>122.66666666666666</ele><time>2026-04-18T07:57:12Z</time></trkpt><trkpt lat="44.52396166939395" lon="10.895782274807342"><ele>123.0</ele><time>2026-04-18T07:57:14Z</time></trkpt><trkpt lat="44.52393209724286" lon="10.895687894094264"><ele>123.33333333333334</ele><time>2026-04-18T07:57:16Z</time></trkpt><trkpt lat="44.523922818161424" lon="10.895571026562235"><ele>123.66666666666667</ele><time>2026-04-18T07:57:18Z</time></trkpt><trkpt lat="44.52389595854311" lon="10.895479905533596"><ele>124.0</ele><time>2026-04-18T07:57:20Z</time></trkpt><trkpt lat="44.52385527984701" lon="10.895395322718693"><ele>124.00000000000001</ele><time>2026-04-18T07:57:22Z</time></trkpt><trkpt lat="44.523820588918404" lon="10.895321402166196"><ele>124.0</ele><time>2026-04-18T07:57:24Z</time></trkpt><trkpt lat="44.52376899226969" lon="10.895229358709551"><ele>124.0</ele><time>2026-04-18T07:57:27Z</time></trkpt><trkpt lat="44.52370831657884" lon="10.895148823111114"><ele>124.0</ele><time>2026-04-18T07:57:30Z</time></trkpt><trkpt lat="44.523649126104154" lon="10.895061540737753"><ele>124.00000000000001</ele><time>2026-04-18T07:57:33Z</time></trkpt><trkpt lat="44.5236002255382" lon="10.894954246248432"><ele>124.0</ele><time>2026-04-18T07:57:36Z</time></trkpt><trkpt lat="44.52356829040635" lon="10.894861435291475"><ele>123.66666666666667</ele><time>2026-04-18T07:57:38Z</time></trkpt><trkpt lat="44.523583407070895" lon="10.894757443156411"><ele>123.33333333333334</ele><time>2026-04-18T07:57:40Z</time></trkpt><trkpt lat="44.52361992097179" lon="10.894684793899186"><ele>123.0</ele><time>2026-04-18T07:57:42Z</time></trkpt><trkpt lat="44.52363580414673" lon="10.894565657393374"><ele>122.66666666666666</ele><time>2026-04-18T07:57:45Z</time></trkpt><trkpt lat="44.52359694935632" lon="10.894487160480876"><ele>122.33333333333333</ele><time>2026-04-18T07:57:47Z</time></trkpt><trkpt lat="44.523528396222794" lon="10.894383703324076"><ele>122.0</ele><time>2026-04-18T07:57:50Z</time></trkpt><trkpt lat="44.52348320041182" lon="10.89430298658464"><ele>122.42857142857142</ele><time>2026-04-18T07:57:52Z</time></trkpt><trkpt lat="44.523449282299" lon="10.894226655654938"><ele>122.85714285714286</ele><time>2026-04-18T07:57:54Z</time></trkpt><trkpt lat="44.523399406245936" lon="10.894158538683486"><ele>123.28571428571428</ele><time>2026-04-18T07:57:56Z</time></trkpt><trkpt lat="44.52336244738516" lon="10.894066296388619"><ele>123.71428571428571</ele><time>2026-04-18T07:57:58Z</time></trkpt><trkpt lat="44.523322538743955" lon="10.893968291256115"><ele>124.14285714285714</ele><time>2026-04-18T07:58:00Z</time></trkpt><trkpt lat="44.523285661286316" lon="10.893885563895179"><ele>124.57142857142857</ele><time>2026-04-18T07:58:02Z</time></trkpt><trkpt lat="44.5232174698409" lon="10.893848940610566"><ele>125.0</ele><time>2026-04-18T07:58:05Z</time></trkpt><trkpt lat="44.52313083393049" lon="10.893817321240606"><ele>125.0</ele><time>2026-04-18T07:58:07Z</time></trkpt><trkpt lat="44.523013519718155" lon="10.893786104507218"><ele>125.0</ele><time>2026-04-18T07:58:09Z</time></trkpt><trkpt lat="44.52290793747122" lon="10.893761527623402"><ele>125.0</ele><time>2026-04-18T07:58:11Z</time></trkpt><trkpt lat="44.52280869261644" lon="10.893725128770978"><ele>125.0</ele><time>2026-04-18T07:58:13Z</time></trkpt><trkpt lat="44.52273582576354" lon="10.893652116342697"><ele>125.0</ele><time>2026-04-18T07:58:15Z</time></trkpt><trkpt lat="44.52266885798306" lon="10.893593368083641"><ele>124.66666666666666</ele><time>2026-04-18T07:58:17Z</time></trkpt><trkpt lat="44.5226058225831" lon="10.893536743189072"><ele>124.33333333333333</ele><time>2026-04-18T07:58:19Z</time></trkpt><trkpt lat="44.522555896797265" lon="10.893459861209594"><ele>124.0</ele><time>2026-04-18T07:58:21Z</time></trkpt><trkpt lat="44.52251360664507" lon="10.893347695180823"><ele>123.66666666666666</ele><time>2026-04-18T07:58:23Z</time></trkpt><trkpt lat="44.52246463874209" lon="10.893248217630552"><ele>123.33333333333333</ele><time>2026-04-18T07:58:25Z</time></trkpt><trkpt lat="44.52240132919323" lon="10.893162110995414"><ele>123.0</ele><time>2026-04-18T07:58:27Z</time></trkpt><trkpt lat="44.522337961749365" lon="10.893085349067663"><ele>123.00000000000001</ele><time>2026-04-18T07:58:29Z</time></trkpt><trkpt lat="44.52229634507648" lon="10.892994291515597"><ele>123.0</ele><time>2026-04-18T07:58:31Z</time></trkpt><trkpt lat="44.522255366067135" lon="10.892896352558079"><ele>123.00000000000001</ele><time>2026-04-18T07:58:33Z</time></trkpt><trkpt lat="44.522228828607844" lon="10.89281217165336"><ele>123.00000000000001</ele><time>2026-04-18T07:58:35Z</time></trkpt><trkpt lat="44.522187827253795" lon="10.89272273586689"><ele>123.0</ele><time>2026-04-18T07:58:37Z</time></trkpt><trkpt lat="44.52214908698436" lon="10.892646710610295"><ele>123.00000000000001</ele><time>2026-04-18T07:58:39Z</time></trkpt><trkpt lat="44.5220868369978" lon="10.892582652236134"><ele>123.00000000000001</ele><time>2026-04-18T07:58:41Z</time></trkpt><trkpt lat="44.52201801164425" lon="10.892538233643558"><ele>123.2857142857143</ele><time>2026-04-18T07:58:43Z</time></trkpt><trkpt lat="44.521946912358246" lon="10.89251622712613"><ele>123.57142857142858</ele><time>2026-04-18T07:58:45Z</time></trkpt><trkpt lat="44.5218739818053" lon="10.89249312338465"><ele>123.85714285714286</ele><time>2026-04-18T07:58:47Z</time></trkpt><trkpt lat="44.521795749865376" lon="10.892477434915325"><ele>124.14285714285715</ele><time>2026-04-18T07:58:49Z</time></trkpt><trkpt lat="44.52173245588561" lon="10.892436426246059"><ele>124.42857142857144</ele><time>2026-04-18T07:58:51Z</time></trkpt><trkpt lat="44.521680354742045" lon="10.89237104667516"><ele>124.71428571428571</ele><time>2026-04-18T07:58:53Z</time></trkpt><trkpt lat="44.52162064450567" lon="10.89230037929441"><ele>125.0</ele><time>2026-04-18T07:58:55Z</time></trkpt><trkpt lat="44.52156014665432" lon="10.892235281130288"><ele>124.99999999999999</ele><time>2026-04-18T07:58:57Z</time></trkpt><trkpt lat="44.52151920731841" lon="10.892138886033061"><ele>125.0</ele><time>2026-04-18T07:58:59Z</time></trkpt><trkpt lat="44.5214611792024" lon="10.892064804935288"><ele>125.0</ele><time>2026-04-18T07:59:01Z</time></trkpt><trkpt lat="44.52139175471786" lon="10.892022680285649"><ele>125.0</ele><time>2026-04-18T07:59:03Z</time></trkpt><trkpt lat="44.52131572747821" lon="10.891994334217879"><ele>124.99999999999999</ele><time>2026-04-18T07:59:05Z</time></trkpt><trkpt lat="44.521236784016864" lon="10.891978955239848"><ele>125.0</ele><time>2026-04-18T07:59:07Z</time></trkpt><trkpt lat="44.52116186800425" lon="10.891959424562558"><ele>125.33333333333333</ele><time>2026-04-18T07:59:09Z</time></trkpt><trkpt lat="44.52109903952153" lon="10.891910525238226"><ele>125.66666666666666</ele><time>2026-04-18T07:59:11Z</time></trkpt><trkpt lat="44.52103332492383" lon="10.891871972341043"><ele>126.0</ele><time>2026-04-18T07:59:13Z</time></trkpt><trkpt lat="44.520960807001615" lon="10.891829344190745"><ele>126.33333333333334</ele><time>2026-04-18T07:59:15Z</time></trkpt><trkpt lat="44.52088487747511" lon="10.891806795576"><ele>126.66666666666667</ele><time>2026-04-18T07:59:17Z</time></trkpt><trkpt lat="44.52081589379695" lon="10.891772917057498"><ele>127.0</ele><time>2026-04-18T07:59:19Z</time></trkpt><trkpt lat="44.520736486988646" lon="10.891746101262429"><ele>127.00000000000001</ele><time>2026-04-18T07:59:21Z</time></trkpt><trkpt lat="44.52066139135124" lon="10.891702896143482"><ele>127.0</ele><time>2026-04-18T07:59:23Z</time></trkpt><trkpt lat="44.52060216351765" lon="10.891655762152661"><ele>127.0</ele><time>2026-04-18T07:59:25Z</time></trkpt><trkpt lat="44.52054210261427" lon="10.891608533115035"><ele>127.0</ele><time>2026-04-18T07:59:27Z</time></trkpt><trkpt lat="44.52047858616245" lon="10.891561419818222"><ele>127.00000000000001</ele><time>2026-04-18T07:59:29Z</time></trkpt><trkpt lat="44.52040563491909" lon="10.891525294539996"><ele>127.0</ele><time>2026-04-18T07:59:31Z</time></trkpt><trkpt lat="44.52032223799857" lon="10.891450191680434"><ele>127.57142857142858</ele><time>2026-04-18T07:59:34Z</time></trkpt><trkpt lat="44.520256870841614" lon="10.89139190910662"><ele>128.14285714285714</ele><time>2026-04-18T07:59:36Z</time></trkpt><trkpt lat="44.52021210977217" lon="10.891317154233565"><ele>128.71428571428572</ele><time>2026-04-18T07:59:38Z</time></trkpt><trkpt lat="44.52018096320045" lon="10.891222466670296"><ele>129.28571428571428</ele><time>2026-04-18T07:59:40Z</time></trkpt><trkpt lat="44.52013761607283" lon="10.891137494928847"><ele>129.85714285714286</ele><time>2026-04-18T07:59:42Z</time></trkpt><trkpt lat="44.52008431812085" lon="10.891076894099305"><ele>130.42857142857144</ele><time>2026-04-18T07:59:44Z</time></trkpt><trkpt lat="44.52002186235303" lon="10.891027652989134"><ele>131.0</ele><time>2026-04-18T07:59:46Z</time></trkpt><trkpt lat="44.5199668298843" lon="10.890984617535532"><ele>130.83333333333331</ele><time>2026-04-18T07:59:48Z</time></trkpt><trkpt lat="44.519909777137194" lon="10.890909441241"><ele>130.66666666666666</ele><time>2026-04-18T07:59:50Z</time></trkpt><trkpt lat="44.519863040034735" lon="10.890838187630917"><ele>130.5</ele><time>2026-04-18T07:59:52Z</time></trkpt><trkpt lat="44.51979819315146" lon="10.890768023125009"><ele>130.33333333333334</ele><time>2026-04-18T07:59:54Z</time></trkpt><trkpt lat="44.51972589431525" lon="10.890736874354875"><ele>130.16666666666669</ele><time>2026-04-18T07:59:56Z</time></trkpt><trkpt lat="44.51964379432564" lon="10.890707388547787"><ele>130.0</ele><time>2026-04-18T07:59:58Z</time></trkpt><trkpt lat="44.51957301226472" lon="10.890671953757227"><ele>130.16666666666669</ele><time>2026-04-18T08:00:00Z</time></trkpt><trkpt lat="44.51950360575691" lon="10.890620772671161"><ele>130.33333333333334</ele><time>2026-04-18T08:00:02Z</time></trkpt><trkpt lat="44.51943892282938" lon="10.890559349343112"><ele>130.5</ele><time>2026-04-18T08:00:04Z</time></trkpt><trkpt lat="44.519390060555146" lon="10.89046726599397"><ele>130.66666666666666</ele><time>2026-04-18T08:00:07Z</time></trkpt><trkpt lat="44.51932631171874" lon="10.890382051060326"><ele>130.83333333333331</ele><time>2026-04-18T08:00:10Z</time></trkpt><trkpt lat="44.51926547271766" lon="10.89028724515114"><ele>131.0</ele><time>2026-04-18T08:00:13Z</time></trkpt><trkpt lat="44.51918182936791" lon="10.890219078519584"><ele>131.0</ele><time>2026-04-18T08:00:16Z</time></trkpt><trkpt lat="44.5191248038401" lon="10.890177598578418"><ele>131.0</ele><time>2026-04-18T08:00:18Z</time></trkpt><trkpt lat="44.519062442327154" lon="10.890143023401386"><ele>131.0</ele><time>2026-04-18T08:00:20Z</time></trkpt><trkpt lat="44.51898584062298" lon="10.89010674154522"><ele>131.0</ele><time>2026-04-18T08:00:22Z</time></trkpt><trkpt lat="44.518895612816635" lon="10.890047273324235"><ele>131.0</ele><time>2026-04-18T08:00:24Z</time></trkpt><trkpt lat="44.51879957040424" lon="10.88999077292927"><ele>131.0</ele><time>2026-04-18T08:00:26Z</time></trkpt><trkpt lat="44.51869845884469" lon="10.889947620931016"><ele>130.8</ele><time>2026-04-18T08:00:28Z</time></trkpt><trkpt lat="44.518602121108685" lon="10.88989106058019"><ele>130.6</ele><time>2026-04-18T08:00:30Z</time></trkpt><trkpt lat="44.518503474592606" lon="10.889853895004663"><ele>130.4</ele><time>2026-04-18T08:00:32Z</time></trkpt><trkpt lat="44.51840997980457" lon="10.88980571906816"><ele>130.2</ele><time>2026-04-18T08:00:34Z</time></trkpt><trkpt lat="44.51832187505652" lon="10.889741474303674"><ele>130.0</ele><time>2026-04-18T08:00:36Z</time></trkpt><trkpt lat="44.518240367040086" lon="10.889685480041756"><ele>130.0</ele><time>2026-04-18T08:00:38Z</time></trkpt><trkpt lat="44.51816555114038" lon="10.889624759483317"><ele>130.0</ele><time>2026-04-18T08:00:40Z</time></trkpt><trkpt lat="44.51809176948718" lon="10.88956625818902"><ele>130.0</ele><time>2026-04-18T08:00:42Z</time></trkpt><trkpt lat="44.51802024831464" lon="10.889511558034027"><ele>130.0</ele><time>2026-04-18T08:00:44Z</time></trkpt><trkpt lat="44.51795361985441" lon="10.889452377525048"><ele>130.0</ele><time>2026-04-18T08:00:46Z</time></trkpt><trkpt lat="44.517890831478084" lon="10.889389321780273"><ele>130.0</ele><time>2026-04-18T08:00:48Z</time></trkpt><trkpt lat="44.51783225756756" lon="10.889316736229482"><ele>129.83333333333334</ele><time>2026-04-18T08:00:50Z</time></trkpt><trkpt lat="44.51777468131604" lon="10.889232788241609"><ele>129.66666666666669</ele><time>2026-04-18T08:00:52Z</time></trkpt><trkpt lat="44.51771992039109" lon="10.889139200258846"><ele>129.5</ele><time>2026-04-18T08:00:54Z</time></trkpt><trkpt lat="44.51765765242061" lon="10.889056856945592"><ele>129.33333333333334</ele><time>2026-04-18T08:00:56Z</time></trkpt><trkpt lat="44.51761115291431" lon="10.888952921973894"><ele>129.16666666666666</ele><time>2026-04-18T08:00:58Z</time></trkpt><trkpt lat="44.51755447966168" lon="10.888859388062151"><ele>129.0</ele><time>2026-04-18T08:01:00Z</time></trkpt><trkpt lat="44.51750044509073" lon="10.888763077885201"><ele>129.0</ele><time>2026-04-18T08:01:02Z</time></trkpt><trkpt lat="44.517452372154" lon="10.888665861182407"><ele>129.0</ele><time>2026-04-18T08:01:04Z</time></trkpt><trkpt lat="44.51736583914942" lon="10.88862309894546"><ele>129.0</ele><time>2026-04-18T08:01:06Z</time></trkpt><trkpt lat="44.517286741662254" lon="10.888590696119202"><ele>129.0</ele><time>2026-04-18T08:01:08Z</time></trkpt><trkpt lat="44.517207233304845" lon="10.88855573728256"><ele>129.0</ele><time>2026-04-18T08:01:10Z</time></trkpt><trkpt lat="44.51714388629146" lon="10.88848395834052"><ele>129.0</ele><time>2026-04-18T08:01:12Z</time></trkpt><trkpt lat="44.51707975309125" lon="10.8884007533695"><ele>129.5</ele><time>2026-04-18T08:01:14Z</time></trkpt><trkpt lat="44.51704200305376" lon="10.888322398166078"><ele>130.0</ele><time>2026-04-18T08:01:16Z</time></trkpt><trkpt lat="44.51705723500506" lon="10.888201412243488"><ele>130.5</ele><time>2026-04-18T08:01:18Z</time></trkpt><trkpt lat="44.51707996935447" lon="10.888115282179172"><ele>131.0</ele><time>2026-04-18T08:01:20Z</time></trkpt><trkpt lat="44.51707098248483" lon="10.88801313199598"><ele>131.5</ele><time>2026-04-18T08:01:23Z</time></trkpt><trkpt lat="44.517016628450044" lon="10.88789973072144"><ele>132.0</ele><time>2026-04-18T08:01:26Z</time></trkpt><trkpt lat="44.51695096891253" lon="10.887811153652757"><ele>132.0</ele><time>2026-04-18T08:01:29Z</time></trkpt><trkpt lat="44.516901311601245" lon="10.887706445514816"><ele>132.0</ele><time>2026-04-18T08:01:32Z</time></trkpt><trkpt lat="44.516846011485654" lon="10.887592000973505"><ele>132.0</ele><time>2026-04-18T08:01:35Z</time></trkpt><trkpt lat="44.51680800640705" lon="10.887519975617813"><ele>132.0</ele><time>2026-04-18T08:01:37Z</time></trkpt><trkpt lat="44.51676843039923" lon="10.887449725597573"><ele>132.0</ele><time>2026-04-18T08:01:39Z</time></trkpt><trkpt lat="44.51671519577425" lon="10.887351953012208"><ele>132.0</ele><time>2026-04-18T08:01:42Z</time></trkpt><trkpt lat="44.516656465687966" lon="10.887264409488894"><ele>132.0</ele><time>2026-04-18T08:01:45Z</time></trkpt><trkpt lat="44.516600940389246" lon="10.8871724505034"><ele>132.0</ele><time>2026-04-18T08:01:48Z</time></trkpt><trkpt lat="44.516564787253905" lon="10.887055143829452"><ele>132.0</ele><time>2026-04-18T08:01:51Z</time></trkpt><trkpt lat="44.51655215736851" lon="10.886931000919388"><ele>132.0</ele><time>2026-04-18T08:01:54Z</time></trkpt><trkpt lat="44.51652703870556" lon="10.88681580910072"><ele>132.0</ele><time>2026-04-18T08:01:57Z</time></trkpt><trkpt lat="44.5164938398984" lon="10.886734726065963"><ele>132.0</ele><time>2026-04-18T08:01:59Z</time></trkpt><trkpt lat="44.516444986914" lon="10.88665387482955"><ele>132.83333333333334</ele><time>2026-04-18T08:02:01Z</time></trkpt><trkpt lat="44.51639962375537" lon="10.886585633088853"><ele>133.66666666666666</ele><time>2026-04-18T08:02:03Z</time></trkpt><trkpt lat="44.516341864214716" lon="10.886485820136272"><ele>134.5</ele><time>2026-04-18T08:02:06Z</time></trkpt><trkpt lat="44.51628241136369" lon="10.88639257723325"><ele>135.33333333333331</ele><time>2026-04-18T08:02:09Z</time></trkpt><trkpt lat="44.51624257610137" lon="10.886316518134496"><ele>136.16666666666666</ele><time>2026-04-18T08:02:11Z</time></trkpt><trkpt lat="44.516197831779515" lon="10.886252156170398"><ele>137.0</ele><time>2026-04-18T08:02:13Z</time></trkpt><trkpt lat="44.51613752356206" lon="10.886155395293594"><ele>137.00000000000003</ele><time>2026-04-18T08:02:16Z</time></trkpt><trkpt lat="44.516099329232425" lon="10.88608139584995"><ele>137.0</ele><time>2026-04-18T08:02:18Z</time></trkpt><trkpt lat="44.51605471236681" lon="10.886013181067344"><ele>137.0</ele><time>2026-04-18T08:02:20Z</time></trkpt><trkpt lat="44.51601121281148" lon="10.885941881813903"><ele>137.0</ele><time>2026-04-18T08:02:22Z</time></trkpt><trkpt lat="44.515954251519" lon="10.885840106255866"><ele>137.0</ele><time>2026-04-18T08:02:25Z</time></trkpt><trkpt lat="44.515911411098344" lon="10.88577156112227"><ele>137.00000000000003</ele><time>2026-04-18T08:02:27Z</time></trkpt><trkpt lat="44.51585606177737" lon="10.885671702472372"><ele>137.0</ele><time>2026-04-18T08:02:30Z</time></trkpt><trkpt lat="44.51581286546283" lon="10.885603678000106"><ele>137.00000000000003</ele><time>2026-04-18T08:02:32Z</time></trkpt><trkpt lat="44.515761006739666" lon="10.885522551376747"><ele>137.0</ele><time>2026-04-18T08:02:34Z</time></trkpt><trkpt lat="44.515705107262185" lon="10.885436222904302"><ele>137.0</ele><time>2026-04-18T08:02:36Z</time></trkpt><trkpt lat="44.515652843677195" lon="10.88537930110507"><ele>137.0</ele><time>2026-04-18T08:02:38Z</time></trkpt><trkpt lat="44.51564549062428" lon="10.885282585047083"><ele>137.0</ele><time>2026-04-18T08:02:40Z</time></trkpt><trkpt lat="44.51562282654757" lon="10.885199570654125"><ele>137.00000000000003</ele><time>2026-04-18T08:02:43Z</time></trkpt><trkpt lat="44.51556678183831" lon="10.885115301376631"><ele>137.0</ele><time>2026-04-18T08:02:46Z</time></trkpt><trkpt lat="44.515519097355124" lon="10.885029822522455"><ele>137.0</ele><time>2026-04-18T08:02:49Z</time></trkpt><trkpt lat="44.515471663353644" lon="10.884943680828846"><ele>137.0</ele><time>2026-04-18T08:02:52Z</time></trkpt><trkpt lat="44.51540576289338" lon="10.884869044207909"><ele>137.0</ele><time>2026-04-18T08:02:55Z</time></trkpt><trkpt lat="44.51530439095998" lon="10.884820988858632"><ele>137.0</ele><time>2026-04-18T08:02:58Z</time></trkpt><trkpt lat="44.515238063981826" lon="10.884761825581279"><ele>137.0</ele><time>2026-04-18T08:03:00Z</time></trkpt><trkpt lat="44.51519193219737" lon="10.88465314499517"><ele>137.0</ele><time>2026-04-18T08:03:03Z</time></trkpt><trkpt lat="44.515128476375025" lon="10.884572454891822"><ele>137.0</ele><time>2026-04-18T08:03:06Z</time></trkpt><trkpt lat="44.51506155451134" lon="10.88454849613008"><ele>137.0</ele><time>2026-04-18T08:03:08Z</time></trkpt><trkpt lat="44.51498689480748" lon="10.884482588923712"><ele>137.0</ele><time>2026-04-18T08:03:10Z</time></trkpt><trkpt lat="44.51495780572057" lon="10.884360036571906"><ele>137.0</ele><time>2026-04-18T08:03:12Z</time></trkpt><trkpt lat="44.51495301681712" lon="10.884245509671548"><ele>137.0</ele><time>2026-04-18T08:03:14Z</time></trkpt><trkpt lat="44.5149141550215" lon="10.884150818287251"><ele>137.0</ele><time>2026-04-18T08:03:16Z</time></trkpt><trkpt lat="44.51486895894254" lon="10.884069670063054"><ele>137.16666666666666</ele><time>2026-04-18T08:03:18Z</time></trkpt><trkpt lat="44.514822406529355" lon="10.88398437338938"><ele>137.33333333333331</ele><time>2026-04-18T08:03:20Z</time></trkpt><trkpt lat="44.51477806641471" lon="10.883892466576372"><ele>137.5</ele><time>2026-04-18T08:03:22Z</time></trkpt><trkpt lat="44.51471444426845" lon="10.883790950734001"><ele>137.66666666666666</ele><time>2026-04-18T08:03:24Z</time></trkpt><trkpt lat="44.514680324969035" lon="10.883678366102261"><ele>137.83333333333334</ele><time>2026-04-18T08:03:26Z</time></trkpt><trkpt lat="44.51465219390696" lon="10.883571946358801"><ele>138.0</ele><time>2026-04-18T08:03:28Z</time></trkpt><trkpt lat="44.51461694896564" lon="10.883484925959513"><ele>138.14285714285714</ele><time>2026-04-18T08:03:30Z</time></trkpt><trkpt lat="44.51456803960833" lon="10.883420276836219"><ele>138.2857142857143</ele><time>2026-04-18T08:03:32Z</time></trkpt><trkpt lat="44.51452189881662" lon="10.88334440217136"><ele>138.42857142857144</ele><time>2026-04-18T08:03:34Z</time></trkpt><trkpt lat="44.51447598232701" lon="10.883270840274289"><ele>138.57142857142858</ele><time>2026-04-18T08:03:36Z</time></trkpt><trkpt lat="44.51443099935882" lon="10.883197640634698"><ele>138.71428571428572</ele><time>2026-04-18T08:03:38Z</time></trkpt><trkpt lat="44.51438579891771" lon="10.883132717461907"><ele>138.85714285714286</ele><time>2026-04-18T08:03:40Z</time></trkpt><trkpt lat="44.51433597111363" lon="10.883057703321693"><ele>139.0</ele><time>2026-04-18T08:03:42Z</time></trkpt><trkpt lat="44.51427865069305" lon="10.882993776613327"><ele>139.0</ele><time>2026-04-18T08:03:44Z</time></trkpt><trkpt lat="44.51421691028111" lon="10.882920318750445"><ele>139.0</ele><time>2026-04-18T08:03:46Z</time></trkpt><trkpt lat="44.514156075102015" lon="10.882839475874372"><ele>139.0</ele><time>2026-04-18T08:03:48Z</time></trkpt><trkpt lat="44.514093195429204" lon="10.88276643338496"><ele>139.0</ele><time>2026-04-18T08:03:50Z</time></trkpt><trkpt lat="44.51402982771481" lon="10.88269957017576"><ele>139.0</ele><time>2026-04-18T08:03:52Z</time></trkpt><trkpt lat="44.51397684003982" lon="10.882641507305284"><ele>139.0</ele><time>2026-04-18T08:03:54Z</time></trkpt><trkpt lat="44.513914216531866" lon="10.882576468426539"><ele>139.5</ele><time>2026-04-18T08:03:56Z</time></trkpt><trkpt lat="44.51389290006073" lon="10.882479316260449"><ele>140.0</ele><time>2026-04-18T08:03:58Z</time></trkpt><trkpt lat="44.51387527021762" lon="10.88237157008282"><ele>140.5</ele><time>2026-04-18T08:04:00Z</time></trkpt><trkpt lat="44.51383417851289" lon="10.882269607699607"><ele>141.0</ele><time>2026-04-18T08:04:02Z</time></trkpt><trkpt lat="44.513777332437314" lon="10.882176111737326"><ele>141.5</ele><time>2026-04-18T08:04:04Z</time></trkpt><trkpt lat="44.513735153898836" lon="10.882086975698469"><ele>142.0</ele><time>2026-04-18T08:04:06Z</time></trkpt><trkpt lat="44.51368787869337" lon="10.881998446724799"><ele>142.0</ele><time>2026-04-18T08:04:08Z</time></trkpt><trkpt lat="44.51363328957611" lon="10.88190877887692"><ele>142.0</ele><time>2026-04-18T08:04:10Z</time></trkpt><trkpt lat="44.513577192370015" lon="10.88182113521834"><ele>142.0</ele><time>2026-04-18T08:04:12Z</time></trkpt><trkpt lat="44.51352397428972" lon="10.881739119436721"><ele>142.0</ele><time>2026-04-18T08:04:14Z</time></trkpt><trkpt lat="44.51347638280472" lon="10.881654274439471"><ele>142.0</ele><time>2026-04-18T08:04:16Z</time></trkpt><trkpt lat="44.513431863030455" lon="10.88157252546577"><ele>142.0</ele><time>2026-04-18T08:04:18Z</time></trkpt><trkpt lat="44.51338284397446" lon="10.88149986660858"><ele>142.33333333333334</ele><time>2026-04-18T08:04:20Z</time></trkpt><trkpt lat="44.5133257457576" lon="10.881414757990788"><ele>142.66666666666669</ele><time>2026-04-18T08:04:22Z</time></trkpt><trkpt lat="44.513268506850316" lon="10.881307942706718"><ele>143.0</ele><time>2026-04-18T08:04:25Z</time></trkpt><trkpt lat="44.51323448893064" lon="10.881215489858874"><ele>143.33333333333334</ele><time>2026-04-18T08:04:27Z</time></trkpt><trkpt lat="44.51319747634019" lon="10.881128409558267"><ele>143.66666666666666</ele><time>2026-04-18T08:04:29Z</time></trkpt><trkpt lat="44.51316500519144" lon="10.881049854391058"><ele>144.0</ele><time>2026-04-18T08:04:31Z</time></trkpt><trkpt lat="44.51312107357256" lon="10.880976684754543"><ele>144.0</ele><time>2026-04-18T08:04:36Z</time></trkpt><trkpt lat="44.51306649603323" lon="10.880898493824366"><ele>144.0</ele><time>2026-04-18T08:05:14Z</time></trkpt><trkpt lat="44.513000076047646" lon="10.880808006604079"><ele>144.0</ele><time>2026-04-18T08:05:17Z</time></trkpt><trkpt lat="44.51295647232418" lon="10.88068914822816"><ele>144.0</ele><time>2026-04-18T08:05:20Z</time></trkpt><trkpt lat="44.51291416814652" lon="10.880610846809217"><ele>144.0</ele><time>2026-04-18T08:05:22Z</time></trkpt><trkpt lat="44.51284890032717" lon="10.880563359126707"><ele>144.0</ele><time>2026-04-18T08:05:24Z</time></trkpt><trkpt lat="44.512764859265964" lon="10.880512320874239"><ele>144.2</ele><time>2026-04-18T08:05:26Z</time></trkpt><trkpt lat="44.51267925319885" lon="10.880432183426612"><ele>144.4</ele><time>2026-04-18T08:05:28Z</time></trkpt><trkpt lat="44.51259263013324" lon="10.88035464891831"><ele>144.6</ele><time>2026-04-18T08:05:30Z</time></trkpt><trkpt lat="44.512502026483254" lon="10.880293917825636"><ele>144.8</ele><time>2026-04-18T08:05:32Z</time></trkpt><trkpt lat="44.51242713224045" lon="10.880225672987736"><ele>145.0</ele><time>2026-04-18T08:05:34Z</time></trkpt><trkpt lat="44.51238183965637" lon="10.880140668043486"><ele>145.33333333333334</ele><time>2026-04-18T08:05:36Z</time></trkpt><trkpt lat="44.512382949408455" lon="10.880027937566604"><ele>145.66666666666669</ele><time>2026-04-18T08:05:38Z</time></trkpt><trkpt lat="44.512380505420914" lon="10.879909571548053"><ele>146.0</ele><time>2026-04-18T08:05:40Z</time></trkpt><trkpt lat="44.51234775047528" lon="10.879809257478144"><ele>146.33333333333334</ele><time>2026-04-18T08:05:42Z</time></trkpt><trkpt lat="44.51230051216998" lon="10.879719998797363"><ele>146.66666666666666</ele><time>2026-04-18T08:05:44Z</time></trkpt><trkpt lat="44.5122604974005" lon="10.87962776880349"><ele>147.0</ele><time>2026-04-18T08:05:46Z</time></trkpt><trkpt lat="44.51221787937391" lon="10.87955403687213"><ele>147.0</ele><time>2026-04-18T08:05:48Z</time></trkpt><trkpt lat="44.512155579181325" lon="10.879475745229335"><ele>147.0</ele><time>2026-04-18T08:05:50Z</time></trkpt><trkpt lat="44.51209335052291" lon="10.879390944063182"><ele>147.0</ele><time>2026-04-18T08:05:52Z</time></trkpt><trkpt lat="44.51203172754012" lon="10.879296250978296"><ele>147.0</ele><time>2026-04-18T08:05:54Z</time></trkpt><trkpt lat="44.5119718045872" lon="10.879206548038331"><ele>147.0</ele><time>2026-04-18T08:05:56Z</time></trkpt><trkpt lat="44.51189659870738" lon="10.879169963473135"><ele>147.0</ele><time>2026-04-18T08:05:58Z</time></trkpt><trkpt lat="44.51179762697077" lon="10.879169034757805"><ele>147.0</ele><time>2026-04-18T08:06:00Z</time></trkpt><trkpt lat="44.51170392772877" lon="10.879123651631557"><ele>147.0</ele><time>2026-04-18T08:06:02Z</time></trkpt><trkpt lat="44.51163713061902" lon="10.879079173892867"><ele>147.0</ele><time>2026-04-18T08:06:04Z</time></trkpt><trkpt lat="44.51157582780028" lon="10.87896259201999"><ele>147.0</ele><time>2026-04-18T08:06:06Z</time></trkpt><trkpt lat="44.5115572952118" lon="10.878865514036443"><ele>147.0</ele><time>2026-04-18T08:06:08Z</time></trkpt><trkpt lat="44.511525701347544" lon="10.878786293001056"><ele>147.0</ele><time>2026-04-18T08:06:10Z</time></trkpt><trkpt lat="44.51148618728453" lon="10.87871672832365"><ele>147.0</ele><time>2026-04-18T08:06:12Z</time></trkpt><trkpt lat="44.51142336120416" lon="10.878618839629723"><ele>147.0</ele><time>2026-04-18T08:06:15Z</time></trkpt><trkpt lat="44.511381246889336" lon="10.87854957052897"><ele>147.0</ele><time>2026-04-18T08:06:17Z</time></trkpt><trkpt lat="44.51132672935252" lon="10.878483501903924"><ele>147.0</ele><time>2026-04-18T08:06:19Z</time></trkpt><trkpt lat="44.51126008722496" lon="10.878402993256655"><ele>147.0</ele><time>2026-04-18T08:06:21Z</time></trkpt><trkpt lat="44.5111935956844" lon="10.878305917579722"><ele>147.0</ele><time>2026-04-18T08:06:23Z</time></trkpt><trkpt lat="44.51113224111738" lon="10.878214950435465"><ele>147.28571428571428</ele><time>2026-04-18T08:06:25Z</time></trkpt><trkpt lat="44.51106301751813" lon="10.878131887940302"><ele>147.57142857142856</ele><time>2026-04-18T08:06:27Z</time></trkpt><trkpt lat="44.51101869460398" lon="10.878068587757037"><ele>147.85714285714286</ele><time>2026-04-18T08:06:29.001Z</time></trkpt><trkpt lat="44.51095754299686" lon="10.878022962799406"><ele>148.14285714285714</ele><time>2026-04-18T08:06:31.001Z</time></trkpt><trkpt lat="44.5109085086786" lon="10.877960421932874"><ele>148.42857142857142</ele><time>2026-04-18T08:06:33.001Z</time></trkpt><trkpt lat="44.51084939321573" lon="10.87790486565317"><ele>148.71428571428572</ele><time>2026-04-18T08:06:35.001Z</time></trkpt><trkpt lat="44.51078747320145" lon="10.877854767777313"><ele>149.0</ele><time>2026-04-18T08:06:37Z</time></trkpt><trkpt lat="44.510721014229055" lon="10.877796250785973"><ele>149.0</ele><time>2026-04-18T08:06:39Z</time></trkpt><trkpt lat="44.51064193370124" lon="10.87774373052914"><ele>149.0</ele><time>2026-04-18T08:06:41Z</time></trkpt><trkpt lat="44.51056172810099" lon="10.877680779692511"><ele>149.0</ele><time>2026-04-18T08:06:43Z</time></trkpt><trkpt lat="44.51048227488746" lon="10.877627241921413"><ele>149.0</ele><time>2026-04-18T08:06:45Z</time></trkpt><trkpt lat="44.510399632679764" lon="10.8775671329506"><ele>149.0</ele><time>2026-04-18T08:06:47Z</time></trkpt><trkpt lat="44.510313501496476" lon="10.877514396039906"><ele>149.6</ele><time>2026-04-18T08:06:49Z</time></trkpt><trkpt lat="44.51022211785383" lon="10.877461621896654"><ele>150.2</ele><time>2026-04-18T08:06:51Z</time></trkpt><trkpt lat="44.51012836728973" lon="10.877420076966189"><ele>150.79999999999998</ele><time>2026-04-18T08:06:53Z</time></trkpt><trkpt lat="44.51003305435566" lon="10.877390450585132"><ele>151.4</ele><time>2026-04-18T08:06:55Z</time></trkpt><trkpt lat="44.509937428407795" lon="10.877353487124022"><ele>152.0</ele><time>2026-04-18T08:06:57Z</time></trkpt><trkpt lat="44.509850310113166" lon="10.877304104846163"><ele>152.0</ele><time>2026-04-18T08:06:59Z</time></trkpt><trkpt lat="44.50976327314345" lon="10.877258431659667"><ele>152.0</ele><time>2026-04-18T08:07:01Z</time></trkpt><trkpt lat="44.50967999053866" lon="10.877219236230122"><ele>152.0</ele><time>2026-04-18T08:07:03Z</time></trkpt><trkpt lat="44.509591077565005" lon="10.877178447187893"><ele>152.0</ele><time>2026-04-18T08:07:05Z</time></trkpt><trkpt lat="44.509508589158244" lon="10.87712671250124"><ele>152.0</ele><time>2026-04-18T08:07:07Z</time></trkpt><trkpt lat="44.50941857380054" lon="10.877091952531005"><ele>151.66666666666666</ele><time>2026-04-18T08:07:09Z</time></trkpt><trkpt lat="44.50932907820078" lon="10.87708147905786"><ele>151.33333333333331</ele><time>2026-04-18T08:07:11Z</time></trkpt><trkpt lat="44.50923697299008" lon="10.8770602981915"><ele>151.0</ele><time>2026-04-18T08:07:13Z</time></trkpt><trkpt lat="44.50917005112006" lon="10.877018715122686"><ele>150.66666666666666</ele><time>2026-04-18T08:07:15Z</time></trkpt><trkpt lat="44.50910058770936" lon="10.876980432202851"><ele>150.33333333333334</ele><time>2026-04-18T08:07:17Z</time></trkpt><trkpt lat="44.509028499805204" lon="10.876933299330238"><ele>150.0</ele><time>2026-04-18T08:07:19Z</time></trkpt><trkpt lat="44.50896417565899" lon="10.876886495392187"><ele>150.0</ele><time>2026-04-18T08:07:21Z</time></trkpt><trkpt lat="44.508890512944625" lon="10.876844500481697"><ele>150.0</ele><time>2026-04-18T08:07:23Z</time></trkpt><trkpt lat="44.508809091713296" lon="10.876794502509119"><ele>150.0</ele><time>2026-04-18T08:07:25Z</time></trkpt><trkpt lat="44.50872371908926" lon="10.87674881733583"><ele>150.0</ele><time>2026-04-18T08:07:27Z</time></trkpt><trkpt lat="44.50863724237308" lon="10.87668534489992"><ele>150.0</ele><time>2026-04-18T08:07:29Z</time></trkpt><trkpt lat="44.508544853276355" lon="10.876639079151772"><ele>150.16666666666666</ele><time>2026-04-18T08:07:31Z</time></trkpt><trkpt lat="44.50845753966935" lon="10.876609346108083"><ele>150.33333333333334</ele><time>2026-04-18T08:07:33Z</time></trkpt><trkpt lat="44.508372941991816" lon="10.8765832512065"><ele>150.5</ele><time>2026-04-18T08:07:35Z</time></trkpt><trkpt lat="44.50828994622747" lon="10.87653837384633"><ele>150.66666666666669</ele><time>2026-04-18T08:07:37Z</time></trkpt><trkpt lat="44.50820508376592" lon="10.876497733807307"><ele>150.83333333333334</ele><time>2026-04-18T08:07:39Z</time></trkpt><trkpt lat="44.508120990547965" lon="10.876450205671198"><ele>151.0</ele><time>2026-04-18T08:07:41Z</time></trkpt><trkpt lat="44.50803395293674" lon="10.876414706753858"><ele>151.0</ele><time>2026-04-18T08:07:43Z</time></trkpt><trkpt lat="44.5079465746585" lon="10.876377699975986"><ele>151.0</ele><time>2026-04-18T08:07:45Z</time></trkpt><trkpt lat="44.5078581690289" lon="10.876336233004148"><ele>151.0</ele><time>2026-04-18T08:07:47Z</time></trkpt><trkpt lat="44.507780799267756" lon="10.876299149138255"><ele>151.0</ele><time>2026-04-18T08:07:49Z</time></trkpt><trkpt lat="44.50770713807553" lon="10.87627233154298"><ele>151.0</ele><time>2026-04-18T08:07:51Z</time></trkpt><trkpt lat="44.50763775153546" lon="10.876250836926298"><ele>151.0</ele><time>2026-04-18T08:07:53Z</time></trkpt><trkpt lat="44.50756761303242" lon="10.87620793187116"><ele>151.14285714285717</ele><time>2026-04-18T08:07:55Z</time></trkpt><trkpt lat="44.5075004501993" lon="10.876185131359184"><ele>151.28571428571428</ele><time>2026-04-18T08:07:57Z</time></trkpt><trkpt lat="44.50743806614787" lon="10.876144055470139"><ele>151.42857142857144</ele><time>2026-04-18T08:07:59Z</time></trkpt><trkpt lat="44.507369095279245" lon="10.876113650928675"><ele>151.57142857142858</ele><time>2026-04-18T08:08:01Z</time></trkpt><trkpt lat="44.50730115348306" lon="10.87608546713574"><ele>151.71428571428572</ele><time>2026-04-18T08:08:03Z</time></trkpt><trkpt lat="44.50723119251527" lon="10.876085684509112"><ele>151.85714285714286</ele><time>2026-04-18T08:08:05Z</time></trkpt><trkpt lat="44.50715329740898" lon="10.876116694899338"><ele>152.0</ele><time>2026-04-18T08:08:07Z</time></trkpt><trkpt lat="44.50706962941526" lon="10.87608468017554"><ele>152.16666666666666</ele><time>2026-04-18T08:08:09Z</time></trkpt><trkpt lat="44.50700202867899" lon="10.876040735547393"><ele>152.33333333333331</ele><time>2026-04-18T08:08:11Z</time></trkpt><trkpt lat="44.506926757748104" lon="10.876008041523624"><ele>152.5</ele><time>2026-04-18T08:08:13Z</time></trkpt><trkpt lat="44.50685791609041" lon="10.875969347894786"><ele>152.66666666666666</ele><time>2026-04-18T08:08:15Z</time></trkpt><trkpt lat="44.50677881588605" lon="10.87593545347315"><ele>152.83333333333334</ele><time>2026-04-18T08:08:17Z</time></trkpt><trkpt lat="44.50670435114129" lon="10.875904868747233"><ele>153.0</ele><time>2026-04-18T08:08:19Z</time></trkpt><trkpt lat="44.50662523010875" lon="10.875859077900703"><ele>153.16666666666666</ele><time>2026-04-18T08:08:21Z</time></trkpt><trkpt lat="44.506556869215686" lon="10.87581802953551"><ele>153.33333333333334</ele><time>2026-04-18T08:08:23Z</time></trkpt><trkpt lat="44.50648985010261" lon="10.875794262346338"><ele>153.5</ele><time>2026-04-18T08:08:24Z</time></trkpt><trkpt lat="44.506392513504885" lon="10.875754086617098"><ele>153.66666666666669</ele><time>2026-04-18T08:08:26Z</time></trkpt><trkpt lat="44.50629401645856" lon="10.875722155861585"><ele>153.83333333333334</ele><time>2026-04-18T08:08:28Z</time></trkpt><trkpt lat="44.506199399077985" lon="10.875697288935994"><ele>154.0</ele><time>2026-04-18T08:08:30Z</time></trkpt><trkpt lat="44.50611491531275" lon="10.875678559609703"><ele>154.2</ele><time>2026-04-18T08:08:32.001Z</time></trkpt><trkpt lat="44.506021183258454" lon="10.87565446128065"><ele>154.4</ele><time>2026-04-18T08:08:34.001Z</time></trkpt><trkpt lat="44.50593295909045" lon="10.875663414107267"><ele>154.6</ele><time>2026-04-18T08:08:36.001Z</time></trkpt><trkpt lat="44.50583661392031" lon="10.875687847595549"><ele>154.8</ele><time>2026-04-18T08:08:38.001Z</time></trkpt><trkpt lat="44.505742001688176" lon="10.875700588467714"><ele>155.0</ele><time>2026-04-18T08:08:40.001Z</time></trkpt><trkpt lat="44.50565307793635" lon="10.875679425035393"><ele>155.0</ele><time>2026-04-18T08:08:42Z</time></trkpt><trkpt lat="44.505567275105676" lon="10.875666129979379"><ele>155.0</ele><time>2026-04-18T08:08:44Z</time></trkpt><trkpt lat="44.50548418285813" lon="10.875654839281257"><ele>155.0</ele><time>2026-04-18T08:08:46Z</time></trkpt><trkpt lat="44.505413186214106" lon="10.875677375881498"><ele>155.0</ele><time>2026-04-18T08:08:48Z</time></trkpt><trkpt lat="44.505323033940414" lon="10.87571013600547"><ele>155.0</ele><time>2026-04-18T08:08:50Z</time></trkpt><trkpt lat="44.50524639266934" lon="10.875698730887521"><ele>155.0</ele><time>2026-04-18T08:08:52Z</time></trkpt><trkpt lat="44.50516524810503" lon="10.87569341725031"><ele>155.66666666666666</ele><time>2026-04-18T08:08:54Z</time></trkpt><trkpt lat="44.50509010722962" lon="10.875690184595333"><ele>156.33333333333331</ele><time>2026-04-18T08:08:56Z</time></trkpt><trkpt lat="44.50501372398569" lon="10.875705357415463"><ele>157.0</ele><time>2026-04-18T08:08:58Z</time></trkpt><trkpt lat="44.50493974867938" lon="10.875738139924946"><ele>157.66666666666666</ele><time>2026-04-18T08:09:00Z</time></trkpt><trkpt lat="44.50487075562482" lon="10.875790200984769"><ele>158.33333333333334</ele><time>2026-04-18T08:09:02Z</time></trkpt><trkpt lat="44.50478481031102" lon="10.87580731039662"><ele>159.0</ele><time>2026-04-18T08:09:04Z</time></trkpt><trkpt lat="44.50470171621543" lon="10.875786292588865"><ele>159.0</ele><time>2026-04-18T08:09:06Z</time></trkpt><trkpt lat="44.504620976117536" lon="10.87576898768986"><ele>159.0</ele><time>2026-04-18T08:09:08Z</time></trkpt><trkpt lat="44.50454613459436" lon="10.875753340523907"><ele>159.0</ele><time>2026-04-18T08:09:10Z</time></trkpt><trkpt lat="44.50446115187567" lon="10.875759098198175"><ele>159.0</ele><time>2026-04-18T08:09:12Z</time></trkpt><trkpt lat="44.5043890590783" lon="10.875768925991565"><ele>159.0</ele><time>2026-04-18T08:09:14Z</time></trkpt><trkpt lat="44.504326229471616" lon="10.875794813431702"><ele>159.0</ele><time>2026-04-18T08:09:16Z</time></trkpt><trkpt lat="44.50426047476739" lon="10.875812698974935"><ele>159.0</ele><time>2026-04-18T08:09:18Z</time></trkpt><trkpt lat="44.504201066109836" lon="10.875849001414512"><ele>158.83333333333334</ele><time>2026-04-18T08:09:20Z</time></trkpt><trkpt lat="44.50411753366794" lon="10.875899972708051"><ele>158.66666666666666</ele><time>2026-04-18T08:09:22Z</time></trkpt><trkpt lat="44.504039428713014" lon="10.875936471405343"><ele>158.5</ele><time>2026-04-18T08:09:24Z</time></trkpt><trkpt lat="44.50395865393768" lon="10.87598218838905"><ele>158.33333333333331</ele><time>2026-04-18T08:09:26Z</time></trkpt><trkpt lat="44.50387473446017" lon="10.87597889852233"><ele>158.16666666666666</ele><time>2026-04-18T08:09:28Z</time></trkpt><trkpt lat="44.503777916016645" lon="10.875961578242107"><ele>158.0</ele><time>2026-04-18T08:09:31Z</time></trkpt><trkpt lat="44.50370554491719" lon="10.875975695113922"><ele>158.2857142857143</ele><time>2026-04-18T08:09:33Z</time></trkpt><trkpt lat="44.50363498726262" lon="10.875981853386588"><ele>158.57142857142858</ele><time>2026-04-18T08:09:35Z</time></trkpt><trkpt lat="44.50356450560892" lon="10.875994274734138"><ele>158.85714285714286</ele><time>2026-04-18T08:09:37Z</time></trkpt><trkpt lat="44.50349265420069" lon="10.875977038439846"><ele>159.14285714285717</ele><time>2026-04-18T08:09:39Z</time></trkpt><trkpt lat="44.5034237646032" lon="10.875952239315575"><ele>159.42857142857144</ele><time>2026-04-18T08:09:41Z</time></trkpt><trkpt lat="44.50335112019372" lon="10.875980674718175"><ele>159.71428571428572</ele><time>2026-04-18T08:09:43Z</time></trkpt><trkpt lat="44.50327084179918" lon="10.876004676298171"><ele>160.0</ele><time>2026-04-18T08:09:45Z</time></trkpt><trkpt lat="44.503188191187334" lon="10.876005026535447"><ele>160.0</ele><time>2026-04-18T08:09:47Z</time></trkpt><trkpt lat="44.50311333498902" lon="10.875997383541037"><ele>160.0</ele><time>2026-04-18T08:09:49Z</time></trkpt><trkpt lat="44.503041054015625" lon="10.875980483807545"><ele>160.0</ele><time>2026-04-18T08:09:51Z</time></trkpt><trkpt lat="44.50297847736566" lon="10.875953719565281"><ele>160.0</ele><time>2026-04-18T08:09:53Z</time></trkpt><trkpt lat="44.502899502477874" lon="10.875934893473444"><ele>160.0</ele><time>2026-04-18T08:09:56Z</time></trkpt><trkpt lat="44.50282063075865" lon="10.875954129108095"><ele>160.0</ele><time>2026-04-18T08:09:58Z</time></trkpt><trkpt lat="44.50274155162235" lon="10.875958307824137"><ele>160.0</ele><time>2026-04-18T08:10:00Z</time></trkpt><trkpt lat="44.50265867914429" lon="10.875947779383674"><ele>160.0</ele><time>2026-04-18T08:10:02Z</time></trkpt><trkpt lat="44.502590273285755" lon="10.87591368407534"><ele>160.0</ele><time>2026-04-18T08:10:04Z</time></trkpt><trkpt lat="44.50252831843636" lon="10.875891229794503"><ele>160.0</ele><time>2026-04-18T08:10:06Z</time></trkpt><trkpt lat="44.50247062781472" lon="10.87585317683837"><ele>160.0</ele><time>2026-04-18T08:10:08Z</time></trkpt><trkpt lat="44.50238873278368" lon="10.875798660877711"><ele>160.0</ele><time>2026-04-18T08:10:11Z</time></trkpt><trkpt lat="44.502327613720716" lon="10.875761910318854"><ele>160.0</ele><time>2026-04-18T08:10:13Z</time></trkpt><trkpt lat="44.50223756042841" lon="10.875714903775279"><ele>160.0</ele><time>2026-04-18T08:10:16Z</time></trkpt><trkpt lat="44.50216777372897" lon="10.875696673583262"><ele>160.0</ele><time>2026-04-18T08:10:18Z</time></trkpt><trkpt lat="44.50210466509899" lon="10.875666157914871"><ele>160.0</ele><time>2026-04-18T08:10:20Z</time></trkpt><trkpt lat="44.50204339817044" lon="10.875629907372435"><ele>160.0</ele><time>2026-04-18T08:10:22Z</time></trkpt><trkpt lat="44.501973977555835" lon="10.875625937668623"><ele>160.0</ele><time>2026-04-18T08:10:24Z</time></trkpt><trkpt lat="44.50187972977796" lon="10.87562468993903"><ele>160.0</ele><time>2026-04-18T08:10:26.001Z</time></trkpt><trkpt lat="44.50177717561992" lon="10.875623507587619"><ele>160.6</ele><time>2026-04-18T08:10:28.001Z</time></trkpt><trkpt lat="44.5016729131702" lon="10.875606824451708"><ele>161.2</ele><time>2026-04-18T08:10:30.001Z</time></trkpt><trkpt lat="44.50157742045003" lon="10.875582863451942"><ele>161.8</ele><time>2026-04-18T08:10:32.001Z</time></trkpt><trkpt lat="44.501479623772276" lon="10.87557192606056"><ele>162.4</ele><time>2026-04-18T08:10:34.001Z</time></trkpt><trkpt lat="44.5013832008281" lon="10.8755479217372"><ele>163.0</ele><time>2026-04-18T08:10:36.001Z</time></trkpt><trkpt lat="44.50130548562951" lon="10.875522646085193"><ele>163.66666666666669</ele><time>2026-04-18T08:10:38.001Z</time></trkpt><trkpt lat="44.50121766680872" lon="10.875507585039541"><ele>164.33333333333334</ele><time>2026-04-18T08:10:40.001Z</time></trkpt><trkpt lat="44.50112789167772" lon="10.875501297751867"><ele>165.0</ele><time>2026-04-18T08:10:42.001Z</time></trkpt><trkpt lat="44.50105425642779" lon="10.875495470176318"><ele>165.66666666666666</ele><time>2026-04-18T08:10:44.001Z</time></trkpt><trkpt lat="44.50098948679704" lon="10.875474363060544"><ele>166.33333333333331</ele><time>2026-04-18T08:10:46.001Z</time></trkpt><trkpt lat="44.50093855134287" lon="10.875418123981596"><ele>167.0</ele><time>2026-04-18T08:10:48Z</time></trkpt><trkpt lat="44.500890086158705" lon="10.875334057567517"><ele>167.0</ele><time>2026-04-18T08:10:50Z</time></trkpt><trkpt lat="44.50083733826841" lon="10.875248302125607"><ele>167.0</ele><time>2026-04-18T08:10:52Z</time></trkpt><trkpt lat="44.500773994837" lon="10.875180638159087"><ele>167.0</ele><time>2026-04-18T08:10:54Z</time></trkpt><trkpt lat="44.500713129029656" lon="10.875112953810538"><ele>167.0</ele><time>2026-04-18T08:10:56Z</time></trkpt><trkpt lat="44.50065232799464" lon="10.875027935656869"><ele>167.0</ele><time>2026-04-18T08:10:58Z</time></trkpt><trkpt lat="44.50060668507517" lon="10.874933083132229"><ele>167.0</ele><time>2026-04-18T08:11:00Z</time></trkpt><trkpt lat="44.500549830232586" lon="10.874856477258993"><ele>166.83333333333331</ele><time>2026-04-18T08:11:02Z</time></trkpt><trkpt lat="44.5004857165838" lon="10.874787229444971"><ele>166.66666666666666</ele><time>2026-04-18T08:11:04Z</time></trkpt><trkpt lat="44.500429504323876" lon="10.87470948374008"><ele>166.5</ele><time>2026-04-18T08:11:06Z</time></trkpt><trkpt lat="44.500361714908465" lon="10.874653490633687"><ele>166.33333333333334</ele><time>2026-04-18T08:11:08Z</time></trkpt><trkpt lat="44.50030453427545" lon="10.874587783903683"><ele>166.16666666666669</ele><time>2026-04-18T08:11:10Z</time></trkpt><trkpt lat="44.500232516112966" lon="10.87454313855746"><ele>166.0</ele><time>2026-04-18T08:11:12Z</time></trkpt><trkpt lat="44.50016967788709" lon="10.874501310192354"><ele>165.85714285714286</ele><time>2026-04-18T08:11:14Z</time></trkpt><trkpt lat="44.50011732064904" lon="10.874441579455645"><ele>165.71428571428572</ele><time>2026-04-18T08:11:16Z</time></trkpt><trkpt lat="44.50006938566489" lon="10.874374502884368"><ele>165.57142857142858</ele><time>2026-04-18T08:11:18Z</time></trkpt><trkpt lat="44.50003407835221" lon="10.87430032808181"><ele>165.42857142857144</ele><time>2026-04-18T08:11:20Z</time></trkpt><trkpt lat="44.49999557065074" lon="10.874207886602374"><ele>165.28571428571428</ele><time>2026-04-18T08:11:23Z</time></trkpt><trkpt lat="44.49996845075539" lon="10.874106781254351"><ele>165.14285714285717</ele><time>2026-04-18T08:11:27Z</time></trkpt><trkpt lat="44.49996635725425" lon="10.874016724410632"><ele>165.0</ele><time>2026-04-18T08:11:32Z</time></trkpt><trkpt lat="44.49992991434388" lon="10.873924719478676"><ele>165.0</ele><time>2026-04-18T08:11:36Z</time></trkpt><trkpt lat="44.49986348975734" lon="10.873870830645563"><ele>165.0</ele><time>2026-04-18T08:11:39Z</time></trkpt><trkpt lat="44.49980555991936" lon="10.873823831115953"><ele>165.0</ele><time>2026-04-18T08:11:42Z</time></trkpt><trkpt lat="44.49973888694726" lon="10.873795802530244"><ele>165.0</ele><time>2026-04-18T08:12:30.001Z</time></trkpt><trkpt lat="44.49973067507037" lon="10.873686362789247"><ele>165.0</ele><time>2026-04-18T08:12:34.001Z</time></trkpt><trkpt lat="44.49971005098443" lon="10.87357588886778"><ele>165.0</ele><time>2026-04-18T08:12:37.001Z</time></trkpt><trkpt lat="44.4996571659268" lon="10.873475864143415"><ele>165.57142857142858</ele><time>2026-04-18T08:12:40.001Z</time></trkpt><trkpt lat="44.499666261677554" lon="10.873376659296284"><ele>166.14285714285714</ele><time>2026-04-18T08:12:42.001Z</time></trkpt><trkpt lat="44.499687377176045" lon="10.873269220025799"><ele>166.71428571428572</ele><time>2026-04-18T08:12:45.001Z</time></trkpt><trkpt lat="44.499694343559824" lon="10.873175299664078"><ele>167.28571428571428</ele><time>2026-04-18T08:12:48.001Z</time></trkpt><trkpt lat="44.499678020547464" lon="10.873082186926604"><ele>167.85714285714286</ele><time>2026-04-18T08:12:51.001Z</time></trkpt><trkpt lat="44.49965654163417" lon="10.872978389528727"><ele>168.42857142857144</ele><time>2026-04-18T08:12:54Z</time></trkpt><trkpt lat="44.499638446801335" lon="10.87287663615044"><ele>169.0</ele><time>2026-04-18T08:12:57Z</time></trkpt><trkpt lat="44.499581769322994" lon="10.872785026760958"><ele>169.14285714285714</ele><time>2026-04-18T08:13:00Z</time></trkpt><trkpt lat="44.49952009035698" lon="10.872756232303947"><ele>169.28571428571428</ele><time>2026-04-18T08:13:09Z</time></trkpt><trkpt lat="44.49946267972979" lon="10.872796912205295"><ele>169.42857142857144</ele><time>2026-04-18T08:13:20Z</time></trkpt><trkpt lat="44.49939919738056" lon="10.872864668748106"><ele>169.57142857142856</ele><time>2026-04-18T08:13:24Z</time></trkpt><trkpt lat="44.499340119691674" lon="10.872920650531354"><ele>169.7142857142857</ele><time>2026-04-18T08:13:27Z</time></trkpt><trkpt lat="44.49928034265404" lon="10.872969009190099"><ele>169.85714285714286</ele><time>2026-04-18T08:13:30Z</time></trkpt><trkpt lat="44.499205200576505" lon="10.873029563996669"><ele>170.0</ele><time>2026-04-18T08:13:33Z</time></trkpt><trkpt lat="44.49912796671357" lon="10.873097218903288"><ele>170.0</ele><time>2026-04-18T08:13:36Z</time></trkpt><trkpt lat="44.4990720653796" lon="10.873143975854019"><ele>170.0</ele><time>2026-04-18T08:13:38Z</time></trkpt><trkpt lat="44.4990148387295" lon="10.873189595773587"><ele>170.0</ele><time>2026-04-18T08:13:40Z</time></trkpt><trkpt lat="44.49894146149518" lon="10.873250433234965"><ele>170.0</ele><time>2026-04-18T08:13:43Z</time></trkpt><trkpt lat="44.4988621036766" lon="10.873316614035701"><ele>170.0</ele><time>2026-04-18T08:13:46Z</time></trkpt><trkpt lat="44.49878453201031" lon="10.873382988927284"><ele>170.0</ele><time>2026-04-18T08:13:49Z</time></trkpt><trkpt lat="44.49872784957629" lon="10.873430349298648"><ele>170.42857142857144</ele><time>2026-04-18T08:13:51Z</time></trkpt><trkpt lat="44.49866751819204" lon="10.873478253255769"><ele>170.85714285714283</ele><time>2026-04-18T08:13:53Z</time></trkpt><trkpt lat="44.49860939277879" lon="10.873525714051983"><ele>171.28571428571428</ele><time>2026-04-18T08:13:55Z</time></trkpt><trkpt lat="44.49855023210578" lon="10.873580200600752"><ele>171.71428571428572</ele><time>2026-04-18T08:13:57Z</time></trkpt><trkpt lat="44.498490085590994" lon="10.873639118113882"><ele>172.14285714285717</ele><time>2026-04-18T08:13:59Z</time></trkpt><trkpt lat="44.49842620346435" lon="10.873692259741473"><ele>172.57142857142856</ele><time>2026-04-18T08:14:01Z</time></trkpt><trkpt lat="44.49836296237971" lon="10.873742762374315"><ele>173.0</ele><time>2026-04-18T08:14:03Z</time></trkpt><trkpt lat="44.49828246741337" lon="10.873803599126969"><ele>173.0</ele><time>2026-04-18T08:14:06Z</time></trkpt><trkpt lat="44.49822495254026" lon="10.873849487737184"><ele>173.0</ele><time>2026-04-18T08:14:08Z</time></trkpt><trkpt lat="44.498166066659905" lon="10.873900522376026"><ele>173.0</ele><time>2026-04-18T08:14:10Z</time></trkpt><trkpt lat="44.49809108842379" lon="10.87396491454115"><ele>173.0</ele><time>2026-04-18T08:14:13Z</time></trkpt><trkpt lat="44.49801993765758" lon="10.874028152876047"><ele>173.0</ele><time>2026-04-18T08:14:16.001Z</time></trkpt><trkpt lat="44.49798528303012" lon="10.874152634332765"><ele>173.0</ele><time>2026-04-18T08:14:19.001Z</time></trkpt><trkpt lat="44.497987600120155" lon="10.874256960779105"><ele>173.0</ele><time>2026-04-18T08:14:21.001Z</time></trkpt><trkpt lat="44.49801051973293" lon="10.874367527805138"><ele>174.0</ele><time>2026-04-18T08:14:23.001Z</time></trkpt><trkpt lat="44.498049138006806" lon="10.874477186314536"><ele>174.0</ele><time>2026-04-18T08:14:25.001Z</time></trkpt><trkpt lat="44.49807540123157" lon="10.874563328019235"><ele>174.0</ele><time>2026-04-18T08:14:28.001Z</time></trkpt><trkpt lat="44.498103608312555" lon="10.87466423896979"><ele>174.0</ele><time>2026-04-18T08:14:32.001Z</time></trkpt></trkseg></trk></gpx>